PWSweather.com
Personal Weather Stations
Station Observations
GRACELEHAN
The Grace C. Lehan Memorial Weather Station, West Hartford, CT 06107

The Grace C. Lehan Memorial Weather StationWest Hartford, CT 06107

Lat: 41.745629, Lon: -72.7443516

Elevation: 136

Station Type: Davis Vantage Pro2 Plus

High Low Average
Temperature 79.7°F26.5°C 57.7°F14.3°C 70.5°F21.4°C
Dew Point 62.8°F17.1°C 44.7°F7.1°C 55.0°F12.8°C
Winds 12.0 mph 19.3 kmh Calm Calm 2.0 mph WSW3.2 kmh WSW
Wind Gusts 13.0 mph20.9 kmh -- 3.0 mph4.8 kmh
Humidity 97% 38% 60%
Pressure 29.93 in1013.5 mb 29.82 in1009.8 mb -
Precipitation 0.00 in0.0 mm - -
Hour Temp Dew Point Humidity Winds Wind Gusts Pressure Precip Precip Rate Daily Precip Total
06:02 AM 57.7°F14.3°C 56.9°F13.8°C 97% Calm Calm -- 29.91 in1012.9 mb 0.01 in0.3 mm 0.30 in7.6 mm 0.01 in0.3 mm
06:04 AM 57.7°F14.3°C 56.9°F13.8°C 97% Calm Calm -- 29.91 in1012.9 mb 0.01 in0.3 mm 0.00 in0.0 mm 0.01 in0.3 mm
06:06 AM 57.7°F14.3°C 56.9°F13.8°C 97% Calm Calm -- 29.91 in1012.9 mb 0.01 in0.3 mm 0.00 in0.0 mm 0.01 in0.3 mm
06:08 AM 57.7°F14.3°C 56.9°F13.8°C 97% Calm Calm -- 29.91 in1012.9 mb 0.01 in0.3 mm 0.00 in0.0 mm 0.01 in0.3 mm
06:10 AM 57.7°F14.3°C 56.9°F13.8°C 97% Calm Calm -- 29.91 in1012.9 mb 0.01 in0.3 mm 0.00 in0.0 mm 0.01 in0.3 mm
06:12 AM 57.8°F14.3°C 57.0°F13.9°C 97% Calm Calm -- 29.91 in1012.9 mb 0.01 in0.3 mm 0.00 in0.0 mm 0.01 in0.3 mm
06:14 AM 57.8°F14.3°C 57.0°F13.9°C 97% Calm Calm -- 29.91 in1012.9 mb 0.01 in0.3 mm 0.00 in0.0 mm 0.01 in0.3 mm
06:16 AM 57.8°F14.3°C 57.0°F13.9°C 97% Calm Calm -- 29.91 in1012.9 mb 0.01 in0.3 mm 0.00 in0.0 mm 0.01 in0.3 mm
06:18 AM 57.9°F14.4°C 57.1°F13.9°C 97% Calm Calm -- 29.91 in1012.9 mb 0.01 in0.3 mm 0.00 in0.0 mm 0.01 in0.3 mm
06:20 AM 57.9°F14.4°C 57.1°F13.9°C 97% Calm Calm -- 29.91 in1012.9 mb 0.01 in0.3 mm 0.00 in0.0 mm 0.01 in0.3 mm
06:22 AM 57.9°F14.4°C 57.1°F13.9°C 97% Calm Calm -- 29.91 in1012.9 mb 0.01 in0.3 mm 0.00 in0.0 mm 0.01 in0.3 mm
06:24 AM 57.9°F14.4°C 57.1°F13.9°C 97% Calm Calm -- 29.91 in1012.9 mb 0.01 in0.3 mm 0.00 in0.0 mm 0.01 in0.3 mm
06:26 AM 57.9°F14.4°C 57.1°F13.9°C 97% Calm Calm -- 29.91 in1012.9 mb 0.01 in0.3 mm 0.00 in0.0 mm 0.01 in0.3 mm
06:28 AM 57.9°F14.4°C 57.1°F13.9°C 97% Calm Calm -- 29.91 in1012.9 mb 0.01 in0.3 mm 0.00 in0.0 mm 0.01 in0.3 mm
06:30 AM 57.9°F14.4°C 57.1°F13.9°C 97% Calm Calm -- 29.91 in1012.9 mb 0.01 in0.3 mm 0.00 in0.0 mm 0.01 in0.3 mm
06:32 AM 57.9°F14.4°C 57.1°F13.9°C 97% Calm Calm -- 29.91 in1012.9 mb 0.01 in0.3 mm 0.00 in0.0 mm 0.01 in0.3 mm
06:34 AM 58.0°F14.4°C 57.2°F14.0°C 97% Calm Calm -- 29.91 in1012.9 mb 0.01 in0.3 mm 0.00 in0.0 mm 0.01 in0.3 mm
06:36 AM 58.1°F14.5°C 57.3°F14.1°C 97% Calm Calm -- 29.91 in1012.9 mb 0.01 in0.3 mm 0.00 in0.0 mm 0.01 in0.3 mm
06:38 AM 58.2°F14.6°C 57.4°F14.1°C 97% Calm Calm -- 29.91 in1012.9 mb 0.01 in0.3 mm 0.00 in0.0 mm 0.01 in0.3 mm
06:40 AM 58.4°F14.7°C 57.6°F14.2°C 97% Calm Calm -- 29.91 in1012.9 mb 0.01 in0.3 mm 0.00 in0.0 mm 0.01 in0.3 mm
06:42 AM 58.6°F14.8°C 57.8°F14.3°C 97% Calm Calm -- 29.91 in1012.9 mb 0.01 in0.3 mm 0.00 in0.0 mm 0.01 in0.3 mm
06:44 AM 58.8°F14.9°C 58.0°F14.4°C 97% Calm Calm -- 29.91 in1012.9 mb 0.01 in0.3 mm 0.00 in0.0 mm 0.01 in0.3 mm
06:46 AM 59.1°F15.1°C 58.3°F14.6°C 97% Calm Calm -- 29.91 in1012.9 mb 0.01 in0.3 mm 0.00 in0.0 mm 0.01 in0.3 mm
06:48 AM 59.4°F15.2°C 58.6°F14.8°C 97% Calm Calm -- 29.91 in1012.9 mb 0.00 in0.0 mm 0.00 in0.0 mm 0.01 in0.3 mm
06:50 AM 59.6°F15.3°C 58.8°F14.9°C 97% Calm Calm -- 29.91 in1012.9 mb 0.00 in0.0 mm 0.00 in0.0 mm 0.01 in0.3 mm
06:52 AM 59.9°F15.5°C 59.1°F15.1°C 97% Calm Calm -- 29.91 in1012.9 mb 0.00 in0.0 mm 0.00 in0.0 mm 0.01 in0.3 mm
06:54 AM 60.1°F15.6°C 59.3°F15.2°C 97% Calm Calm -- 29.91 in1012.9 mb 0.00 in0.0 mm 0.00 in0.0 mm 0.01 in0.3 mm
06:56 AM 60.3°F15.7°C 59.5°F15.3°C 97% Calm Calm -- 29.91 in1012.9 mb 0.00 in0.0 mm 0.00 in0.0 mm 0.01 in0.3 mm
06:58 AM 60.4°F15.8°C 59.6°F15.3°C 97% Calm Calm -- 29.91 in1012.9 mb 0.00 in0.0 mm 0.00 in0.0 mm 0.01 in0.3 mm
07:00 AM 60.6°F15.9°C 59.8°F15.4°C 97% Calm Calm -- 29.91 in1012.9 mb 0.00 in0.0 mm 0.00 in0.0 mm 0.01 in0.3 mm
07:02 AM 60.8°F16.0°C 60.0°F15.6°C 97% Calm Calm -- 29.92 in1013.2 mb 0.00 in0.0 mm 0.00 in0.0 mm 0.01 in0.3 mm
07:04 AM 61.0°F16.1°C 60.2°F15.7°C 97% Calm Calm -- 29.92 in1013.2 mb 0.00 in0.0 mm 0.00 in0.0 mm 0.01 in0.3 mm
07:06 AM 61.1°F16.2°C 60.3°F15.7°C 97% Calm Calm -- 29.92 in1013.2 mb 0.00 in0.0 mm 0.00 in0.0 mm 0.01 in0.3 mm
07:08 AM 61.2°F16.2°C 60.4°F15.8°C 97% Calm Calm -- 29.92 in1013.2 mb 0.00 in0.0 mm 0.00 in0.0 mm 0.01 in0.3 mm
07:10 AM 61.3°F16.3°C 60.4°F15.8°C 97% Calm Calm -- 29.92 in1013.2 mb 0.00 in0.0 mm 0.00 in0.0 mm 0.01 in0.3 mm
07:12 AM 61.5°F16.4°C 60.6°F15.9°C 97% Calm Calm -- 29.92 in1013.2 mb 0.00 in0.0 mm 0.00 in0.0 mm 0.01 in0.3 mm
07:14 AM 61.6°F16.4°C 60.7°F15.9°C 97% Calm Calm -- 29.92 in1013.2 mb 0.00 in0.0 mm 0.00 in0.0 mm 0.01 in0.3 mm
07:16 AM 61.7°F16.5°C 60.8°F16.0°C 97% Calm Calm -- 29.92 in1013.2 mb 0.00 in0.0 mm 0.00 in0.0 mm 0.01 in0.3 mm
07:18 AM 61.7°F16.5°C 60.8°F16.0°C 97% Calm Calm -- 29.92 in1013.2 mb 0.00 in0.0 mm 0.00 in0.0 mm 0.01 in0.3 mm
07:20 AM 61.9°F16.6°C 61.0°F16.1°C 97% 1.0 mph SW1.6 kmh SW 1.0 mph1.6 kmh 29.92 in1013.2 mb 0.00 in0.0 mm 0.00 in0.0 mm 0.01 in0.3 mm
07:22 AM 62.0°F16.7°C 60.9°F16.1°C 96% Calm Calm -- 29.92 in1013.2 mb 0.00 in0.0 mm 0.00 in0.0 mm 0.01 in0.3 mm
07:24 AM 62.1°F16.7°C 61.0°F16.1°C 96% Calm Calm -- 29.92 in1013.2 mb 0.00 in0.0 mm 0.00 in0.0 mm 0.01 in0.3 mm
07:26 AM 62.2°F16.8°C 61.1°F16.2°C 96% Calm Calm -- 29.92 in1013.2 mb 0.00 in0.0 mm 0.00 in0.0 mm 0.01 in0.3 mm
07:28 AM 62.4°F16.9°C 61.3°F16.3°C 96% Calm Calm -- 29.92 in1013.2 mb 0.00 in0.0 mm 0.00 in0.0 mm 0.01 in0.3 mm
07:30 AM 62.5°F16.9°C 61.4°F16.3°C 96% Calm Calm -- 29.92 in1013.2 mb 0.00 in0.0 mm 0.00 in0.0 mm 0.01 in0.3 mm
07:32 AM 62.5°F16.9°C 60.8°F16.0°C 94% Calm Calm 1.0 mph1.6 kmh 29.92 in1013.2 mb 0.00 in0.0 mm 0.00 in0.0 mm 0.01 in0.3 mm
07:34 AM 62.4°F16.9°C 60.4°F15.8°C 93% Calm Calm 1.0 mph1.6 kmh 29.92 in1013.2 mb 0.00 in0.0 mm 0.00 in0.0 mm 0.01 in0.3 mm
07:36 AM 62.3°F16.8°C 60.3°F15.7°C 93% Calm Calm -- 29.92 in1013.2 mb 0.00 in0.0 mm 0.00 in0.0 mm 0.01 in0.3 mm
07:38 AM 62.2°F16.8°C 60.2°F15.7°C 93% Calm Calm 1.0 mph1.6 kmh 29.92 in1013.2 mb 0.00 in0.0 mm 0.00 in0.0 mm 0.01 in0.3 mm
07:40 AM 62.2°F16.8°C 60.2°F15.7°C 93% Calm Calm -- 29.91 in1012.9 mb 0.00 in0.0 mm 0.00 in0.0 mm 0.01 in0.3 mm
07:42 AM 62.3°F16.8°C 60.3°F15.7°C 93% Calm Calm -- 29.91 in1012.9 mb 0.00 in0.0 mm 0.00 in0.0 mm 0.01 in0.3 mm
07:44 AM 62.3°F16.8°C 60.3°F15.7°C 93% Calm Calm -- 29.91 in1012.9 mb 0.00 in0.0 mm 0.00 in0.0 mm 0.01 in0.3 mm
07:46 AM 62.2°F16.8°C 59.9°F15.5°C 92% Calm Calm -- 29.91 in1012.9 mb 0.00 in0.0 mm 0.00 in0.0 mm 0.01 in0.3 mm
07:48 AM 62.2°F16.8°C 60.2°F15.7°C 93% Calm Calm -- 29.92 in1013.2 mb 0.00 in0.0 mm 0.00 in0.0 mm 0.01 in0.3 mm
07:50 AM 62.3°F16.8°C 60.3°F15.7°C 93% Calm Calm -- 29.91 in1012.9 mb 0.00 in0.0 mm 0.00 in0.0 mm 0.01 in0.3 mm
07:52 AM 62.5°F16.9°C 60.5°F15.8°C 93% Calm Calm -- 29.92 in1013.2 mb 0.00 in0.0 mm 0.00 in0.0 mm 0.01 in0.3 mm
07:54 AM 62.7°F17.1°C 61.0°F16.1°C 94% Calm Calm -- 29.92 in1013.2 mb 0.00 in0.0 mm 0.00 in0.0 mm 0.01 in0.3 mm
07:56 AM 62.9°F17.2°C 60.9°F16.1°C 93% Calm Calm -- 29.92 in1013.2 mb 0.00 in0.0 mm 0.00 in0.0 mm 0.01 in0.3 mm
07:58 AM 63.1°F17.3°C 61.1°F16.2°C 93% Calm Calm -- 29.92 in1013.2 mb 0.00 in0.0 mm 0.00 in0.0 mm 0.01 in0.3 mm
08:00 AM 63.3°F17.4°C 61.3°F16.3°C 93% Calm Calm -- 29.92 in1013.2 mb 0.00 in0.0 mm 0.00 in0.0 mm 0.01 in0.3 mm
08:02 AM 63.5°F17.5°C 61.1°F16.2°C 92% Calm Calm -- 29.92 in1013.2 mb 0.00 in0.0 mm 0.00 in0.0 mm 0.01 in0.3 mm
08:04 AM 63.7°F17.6°C 61.3°F16.3°C 92% Calm Calm -- 29.92 in1013.2 mb 0.00 in0.0 mm 0.00 in0.0 mm 0.01 in0.3 mm
08:06 AM 64.0°F17.8°C 61.3°F16.3°C 91% Calm Calm -- 29.92 in1013.2 mb 0.00 in0.0 mm 0.00 in0.0 mm 0.01 in0.3 mm
08:08 AM 64.3°F17.9°C 61.6°F16.4°C 91% Calm Calm -- 29.92 in1013.2 mb 0.00 in0.0 mm 0.00 in0.0 mm 0.01 in0.3 mm
08:10 AM 64.5°F18.1°C 61.5°F16.4°C 90% Calm Calm -- 29.92 in1013.2 mb 0.00 in0.0 mm 0.00 in0.0 mm 0.01 in0.3 mm
08:12 AM 64.6°F18.1°C 61.3°F16.3°C 89% Calm Calm -- 29.92 in1013.2 mb 0.00 in0.0 mm 0.00 in0.0 mm 0.01 in0.3 mm
08:14 AM 64.8°F18.2°C 61.5°F16.4°C 89% Calm Calm -- 29.92 in1013.2 mb 0.00 in0.0 mm 0.00 in0.0 mm 0.01 in0.3 mm
08:16 AM 65.0°F18.3°C 61.7°F16.5°C 89% Calm Calm -- 29.92 in1013.2 mb 0.00 in0.0 mm 0.00 in0.0 mm 0.01 in0.3 mm
08:18 AM 65.3°F18.5°C 61.7°F16.5°C 88% Calm Calm -- 29.92 in1013.2 mb 0.00 in0.0 mm 0.00 in0.0 mm 0.01 in0.3 mm
08:20 AM 65.6°F18.7°C 62.0°F16.7°C 88% Calm Calm -- 29.92 in1013.2 mb 0.00 in0.0 mm 0.00 in0.0 mm 0.01 in0.3 mm
08:22 AM 65.8°F18.8°C 62.2°F16.8°C 88% Calm Calm -- 29.92 in1013.2 mb 0.00 in0.0 mm 0.00 in0.0 mm 0.01 in0.3 mm
08:24 AM 66.1°F18.9°C 62.1°F16.7°C 87% Calm Calm -- 29.92 in1013.2 mb 0.00 in0.0 mm 0.00 in0.0 mm 0.01 in0.3 mm
08:26 AM 66.3°F19.1°C 62.0°F16.7°C 86% Calm Calm -- 29.92 in1013.2 mb 0.00 in0.0 mm 0.00 in0.0 mm 0.01 in0.3 mm
08:28 AM 66.5°F19.2°C 62.2°F16.8°C 86% Calm Calm 1.0 mph1.6 kmh 29.92 in1013.2 mb 0.00 in0.0 mm 0.00 in0.0 mm 0.01 in0.3 mm
08:30 AM 66.8°F19.3°C 62.5°F16.9°C 86% Calm Calm 1.0 mph1.6 kmh 29.92 in1013.2 mb 0.00 in0.0 mm 0.00 in0.0 mm 0.01 in0.3 mm
08:32 AM 67.0°F19.4°C 62.4°F16.9°C 85% 1.0 mph WNW1.6 kmh WNW 2.0 mph3.2 kmh 29.92 in1013.2 mb 0.00 in0.0 mm 0.00 in0.0 mm 0.01 in0.3 mm
08:34 AM 67.2°F19.6°C 62.2°F16.8°C 84% Calm Calm 1.0 mph1.6 kmh 29.92 in1013.2 mb 0.00 in0.0 mm 0.00 in0.0 mm 0.01 in0.3 mm
08:36 AM 67.2°F19.6°C 62.2°F16.8°C 84% Calm Calm -- 29.92 in1013.2 mb 0.00 in0.0 mm 0.00 in0.0 mm 0.01 in0.3 mm
08:38 AM 67.4°F19.7°C 62.4°F16.9°C 84% Calm Calm -- 29.91 in1012.9 mb 0.00 in0.0 mm 0.00 in0.0 mm 0.01 in0.3 mm
08:40 AM 67.4°F19.7°C 62.1°F16.7°C 83% Calm Calm 2.0 mph3.2 kmh 29.92 in1013.2 mb 0.00 in0.0 mm 0.00 in0.0 mm 0.01 in0.3 mm
08:42 AM 67.4°F19.7°C 62.1°F16.7°C 83% Calm Calm 1.0 mph1.6 kmh 29.91 in1012.9 mb 0.00 in0.0 mm 0.00 in0.0 mm 0.01 in0.3 mm
08:44 AM 67.2°F19.6°C 61.9°F16.6°C 83% Calm Calm -- 29.91 in1012.9 mb 0.00 in0.0 mm 0.00 in0.0 mm 0.01 in0.3 mm
08:46 AM 67.2°F19.6°C 61.9°F16.6°C 83% Calm Calm -- 29.91 in1012.9 mb 0.00 in0.0 mm 0.00 in0.0 mm 0.01 in0.3 mm
08:48 AM 67.3°F19.6°C 62.3°F16.8°C 84% 2.0 mph WNW3.2 kmh WNW 2.0 mph3.2 kmh 29.91 in1012.9 mb 0.00 in0.0 mm 0.00 in0.0 mm 0.01 in0.3 mm
08:50 AM 67.4°F19.7°C 62.1°F16.7°C 83% 1.0 mph WNW1.6 kmh WNW 2.0 mph3.2 kmh 29.91 in1012.9 mb 0.00 in0.0 mm 0.00 in0.0 mm 0.01 in0.3 mm
08:52 AM 67.5°F19.7°C 61.8°F16.6°C 82% Calm Calm 1.0 mph1.6 kmh 29.91 in1012.9 mb 0.00 in0.0 mm 0.00 in0.0 mm 0.01 in0.3 mm
08:54 AM 67.6°F19.8°C 61.9°F16.6°C 82% Calm Calm -- 29.91 in1012.9 mb 0.00 in0.0 mm 0.00 in0.0 mm 0.01 in0.3 mm
08:56 AM 67.7°F19.8°C 62.4°F16.9°C 83% 1.0 mph WNW1.6 kmh WNW 1.0 mph1.6 kmh 29.91 in1012.9 mb 0.00 in0.0 mm 0.00 in0.0 mm 0.01 in0.3 mm
08:58 AM 67.8°F19.9°C 62.1°F16.7°C 82% Calm Calm 2.0 mph3.2 kmh 29.92 in1013.2 mb 0.00 in0.0 mm 0.00 in0.0 mm 0.01 in0.3 mm
09:00 AM 67.9°F19.9°C 61.9°F16.6°C 81% Calm Calm -- 29.92 in1013.2 mb 0.00 in0.0 mm 0.00 in0.0 mm 0.01 in0.3 mm
09:02 AM 67.9°F19.9°C 61.9°F16.6°C 81% 1.0 mph WNW1.6 kmh WNW 2.0 mph3.2 kmh 29.91 in1012.9 mb 0.00 in0.0 mm 0.00 in0.0 mm 0.01 in0.3 mm
09:04 AM 67.9°F19.9°C 61.5°F16.4°C 80% Calm Calm 2.0 mph3.2 kmh 29.91 in1012.9 mb 0.00 in0.0 mm 0.00 in0.0 mm 0.01 in0.3 mm
09:06 AM 68.0°F20.0°C 62.0°F16.7°C 81% Calm Calm -- 29.91 in1012.9 mb 0.00 in0.0 mm 0.00 in0.0 mm 0.01 in0.3 mm
09:08 AM 68.2°F20.1°C 62.2°F16.8°C 81% Calm Calm 1.0 mph1.6 kmh 29.91 in1012.9 mb 0.00 in0.0 mm 0.00 in0.0 mm 0.01 in0.3 mm
09:10 AM 68.4°F20.2°C 62.7°F17.1°C 82% Calm Calm -- 29.91 in1012.9 mb 0.00 in0.0 mm 0.00 in0.0 mm 0.01 in0.3 mm
09:12 AM 68.6°F20.3°C 62.2°F16.8°C 80% 1.0 mph WNW1.6 kmh WNW 3.0 mph4.8 kmh 29.91 in1012.9 mb 0.00 in0.0 mm 0.00 in0.0 mm 0.01 in0.3 mm
09:14 AM 68.7°F20.4°C 61.6°F16.4°C 78% 2.0 mph WNW3.2 kmh WNW 2.0 mph3.2 kmh 29.91 in1012.9 mb 0.00 in0.0 mm 0.00 in0.0 mm 0.01 in0.3 mm
09:16 AM 68.9°F20.5°C 62.1°F16.7°C 79% 1.0 mph WNW1.6 kmh WNW 2.0 mph3.2 kmh 29.91 in1012.9 mb 0.00 in0.0 mm 0.00 in0.0 mm 0.01 in0.3 mm
09:18 AM 69.0°F20.6°C 62.2°F16.8°C 79% 1.0 mph WNW1.6 kmh WNW 2.0 mph3.2 kmh 29.91 in1012.9 mb 0.00 in0.0 mm 0.00 in0.0 mm 0.01 in0.3 mm
09:20 AM 69.2°F20.7°C 62.1°F16.7°C 78% 2.0 mph WNW3.2 kmh WNW 3.0 mph4.8 kmh 29.91 in1012.9 mb 0.00 in0.0 mm 0.00 in0.0 mm 0.01 in0.3 mm
09:22 AM 69.4°F20.8°C 62.3°F16.8°C 78% Calm Calm 1.0 mph1.6 kmh 29.91 in1012.9 mb 0.00 in0.0 mm 0.00 in0.0 mm 0.01 in0.3 mm
09:24 AM 69.5°F20.8°C 62.0°F16.7°C 77% Calm Calm 3.0 mph4.8 kmh 29.91 in1012.9 mb 0.00 in0.0 mm 0.00 in0.0 mm 0.01 in0.3 mm
09:26 AM 69.6°F20.9°C 61.3°F16.3°C 75% 1.0 mph WNW1.6 kmh WNW 2.0 mph3.2 kmh 29.91 in1012.9 mb 0.00 in0.0 mm 0.00 in0.0 mm 0.01 in0.3 mm
09:28 AM 69.6°F20.9°C 61.3°F16.3°C 75% Calm Calm -- 29.90 in1012.5 mb 0.00 in0.0 mm 0.00 in0.0 mm 0.01 in0.3 mm
09:30 AM 69.7°F20.9°C 61.8°F16.6°C 76% Calm Calm -- 29.90 in1012.5 mb 0.00 in0.0 mm 0.00 in0.0 mm 0.01 in0.3 mm
09:32 AM 69.9°F21.1°C 62.0°F16.7°C 76% Calm Calm -- 29.90 in1012.5 mb 0.00 in0.0 mm 0.00 in0.0 mm 0.01 in0.3 mm
09:34 AM 70.0°F21.1°C 61.7°F16.5°C 75% 2.0 mph WNW3.2 kmh WNW 2.0 mph3.2 kmh 29.90 in1012.5 mb 0.00 in0.0 mm 0.00 in0.0 mm 0.01 in0.3 mm
09:36 AM 70.2°F21.2°C 62.3°F16.8°C 76% 2.0 mph WNW3.2 kmh WNW 2.0 mph3.2 kmh 29.90 in1012.5 mb 0.00 in0.0 mm 0.00 in0.0 mm 0.01 in0.3 mm
09:40 AM 70.4°F21.3°C 62.1°F16.7°C 75% Calm Calm -- 29.90 in1012.5 mb 0.00 in0.0 mm 0.00 in0.0 mm 0.01 in0.3 mm
09:42 AM 70.5°F21.4°C 62.2°F16.8°C 75% 2.0 mph WNW3.2 kmh WNW 2.0 mph3.2 kmh 29.90 in1012.5 mb 0.00 in0.0 mm 0.00 in0.0 mm 0.01 in0.3 mm
09:44 AM 70.6°F21.4°C 61.9°F16.6°C 74% 1.0 mph WNW1.6 kmh WNW 1.0 mph1.6 kmh 29.90 in1012.5 mb 0.00 in0.0 mm 0.00 in0.0 mm 0.01 in0.3 mm
09:46 AM 70.6°F21.4°C 61.9°F16.6°C 74% Calm Calm 1.0 mph1.6 kmh 29.90 in1012.5 mb 0.00 in0.0 mm 0.00 in0.0 mm 0.01 in0.3 mm
09:48 AM 70.8°F21.6°C 62.1°F16.7°C 74% Calm Calm -- 29.90 in1012.5 mb 0.00 in0.0 mm 0.00 in0.0 mm 0.01 in0.3 mm
09:50 AM 70.9°F21.6°C 62.2°F16.8°C 74% Calm Calm -- 29.90 in1012.5 mb 0.00 in0.0 mm 0.00 in0.0 mm 0.01 in0.3 mm
09:52 AM 71.1°F21.7°C 62.8°F17.1°C 75% 2.0 mph WNW3.2 kmh WNW 2.0 mph3.2 kmh 29.89 in1012.2 mb 0.00 in0.0 mm 0.00 in0.0 mm 0.01 in0.3 mm
09:54 AM 71.2°F21.8°C 62.5°F16.9°C 74% Calm Calm 3.0 mph4.8 kmh 29.89 in1012.2 mb 0.00 in0.0 mm 0.00 in0.0 mm 0.01 in0.3 mm
09:56 AM 71.4°F21.9°C 61.9°F16.6°C 72% 2.0 mph W3.2 kmh W 3.0 mph4.8 kmh 29.89 in1012.2 mb 0.00 in0.0 mm 0.00 in0.0 mm 0.01 in0.3 mm
09:58 AM 71.5°F21.9°C 62.0°F16.7°C 72% 2.0 mph W3.2 kmh W 2.0 mph3.2 kmh 29.89 in1012.2 mb 0.00 in0.0 mm 0.00 in0.0 mm 0.01 in0.3 mm
10:00 AM 71.6°F22.0°C 62.1°F16.7°C 72% 2.0 mph W3.2 kmh W 2.0 mph3.2 kmh 29.89 in1012.2 mb 0.00 in0.0 mm 0.00 in0.0 mm 0.01 in0.3 mm
10:02 AM 71.7°F22.1°C 62.2°F16.8°C 72% Calm Calm 1.0 mph1.6 kmh 29.89 in1012.2 mb 0.00 in0.0 mm 0.00 in0.0 mm 0.01 in0.3 mm
10:04 AM 71.7°F22.1°C 61.0°F16.1°C 69% 1.0 mph W1.6 kmh W 2.0 mph3.2 kmh 29.89 in1012.2 mb 0.00 in0.0 mm 0.00 in0.0 mm 0.01 in0.3 mm
10:06 AM 71.7°F22.1°C 61.4°F16.3°C 70% Calm Calm 1.0 mph1.6 kmh 29.89 in1012.2 mb 0.00 in0.0 mm 0.00 in0.0 mm 0.01 in0.3 mm
10:08 AM 71.8°F22.1°C 61.9°F16.6°C 71% 1.0 mph W1.6 kmh W 2.0 mph3.2 kmh 29.89 in1012.2 mb 0.00 in0.0 mm 0.00 in0.0 mm 0.01 in0.3 mm
10:10 AM 71.9°F22.2°C 61.6°F16.4°C 70% 1.0 mph W1.6 kmh W 1.0 mph1.6 kmh 29.89 in1012.2 mb 0.00 in0.0 mm 0.00 in0.0 mm 0.01 in0.3 mm
10:12 AM 72.0°F22.2°C 61.7°F16.5°C 70% 1.0 mph W1.6 kmh W 2.0 mph3.2 kmh 29.89 in1012.2 mb 0.00 in0.0 mm 0.00 in0.0 mm 0.01 in0.3 mm
10:14 AM 72.1°F22.3°C 62.2°F16.8°C 71% 2.0 mph W3.2 kmh W 3.0 mph4.8 kmh 29.89 in1012.2 mb 0.00 in0.0 mm 0.00 in0.0 mm 0.01 in0.3 mm
10:16 AM 72.1°F22.3°C 61.8°F16.6°C 70% 2.0 mph W3.2 kmh W 2.0 mph3.2 kmh 29.89 in1012.2 mb 0.00 in0.0 mm 0.00 in0.0 mm 0.01 in0.3 mm
10:18 AM 72.3°F22.4°C 62.4°F16.9°C 71% 1.0 mph W1.6 kmh W 2.0 mph3.2 kmh 29.89 in1012.2 mb 0.00 in0.0 mm 0.00 in0.0 mm 0.01 in0.3 mm
10:20 AM 72.4°F22.4°C 62.1°F16.7°C 70% Calm Calm 2.0 mph3.2 kmh 29.89 in1012.2 mb 0.00 in0.0 mm 0.00 in0.0 mm 0.01 in0.3 mm
10:22 AM 72.5°F22.5°C 62.6°F17.0°C 71% 2.0 mph W3.2 kmh W 2.0 mph3.2 kmh 29.89 in1012.2 mb 0.00 in0.0 mm 0.00 in0.0 mm 0.01 in0.3 mm
10:24 AM 72.7°F22.6°C 62.4°F16.9°C 70% 2.0 mph W3.2 kmh W 2.0 mph3.2 kmh 29.89 in1012.2 mb 0.00 in0.0 mm 0.00 in0.0 mm 0.01 in0.3 mm
10:26 AM 72.9°F22.7°C 62.6°F17.0°C 70% 1.0 mph W1.6 kmh W 3.0 mph4.8 kmh 29.89 in1012.2 mb 0.00 in0.0 mm 0.00 in0.0 mm 0.01 in0.3 mm
10:28 AM 73.0°F22.8°C 62.7°F17.1°C 70% 1.0 mph W1.6 kmh W 3.0 mph4.8 kmh 29.89 in1012.2 mb 0.00 in0.0 mm 0.00 in0.0 mm 0.01 in0.3 mm
10:30 AM 73.0°F22.8°C 61.8°F16.6°C 68% 2.0 mph WSW3.2 kmh WSW 5.0 mph8.0 kmh 29.89 in1012.2 mb 0.00 in0.0 mm 0.00 in0.0 mm 0.01 in0.3 mm
10:32 AM 73.2°F22.9°C 62.0°F16.7°C 68% 1.0 mph WSW1.6 kmh WSW 4.0 mph6.4 kmh 29.89 in1012.2 mb 0.00 in0.0 mm 0.00 in0.0 mm 0.01 in0.3 mm
10:34 AM 73.3°F22.9°C 62.1°F16.7°C 68% 3.0 mph WSW4.8 kmh WSW 3.0 mph4.8 kmh 29.89 in1012.2 mb 0.00 in0.0 mm 0.00 in0.0 mm 0.01 in0.3 mm
10:36 AM 73.5°F23.1°C 61.9°F16.6°C 67% 2.0 mph W3.2 kmh W 3.0 mph4.8 kmh 29.88 in1011.9 mb 0.00 in0.0 mm 0.00 in0.0 mm 0.01 in0.3 mm
10:38 AM 73.6°F23.1°C 61.6°F16.4°C 66% 1.0 mph W1.6 kmh W 1.0 mph1.6 kmh 29.88 in1011.9 mb 0.00 in0.0 mm 0.00 in0.0 mm 0.01 in0.3 mm
10:40 AM 73.7°F23.2°C 61.2°F16.2°C 65% 2.0 mph WSW3.2 kmh WSW 2.0 mph3.2 kmh 29.88 in1011.9 mb 0.00 in0.0 mm 0.00 in0.0 mm 0.01 in0.3 mm
10:42 AM 73.6°F23.1°C 60.2°F15.7°C 63% Calm Calm -- 29.88 in1011.9 mb 0.00 in0.0 mm 0.00 in0.0 mm 0.01 in0.3 mm
10:44 AM 73.7°F23.2°C 61.2°F16.2°C 65% 3.0 mph WSW4.8 kmh WSW 3.0 mph4.8 kmh 29.88 in1011.9 mb 0.00 in0.0 mm 0.00 in0.0 mm 0.01 in0.3 mm
10:46 AM 73.8°F23.2°C 62.2°F16.8°C 67% Calm Calm 2.0 mph3.2 kmh 29.88 in1011.9 mb 0.00 in0.0 mm 0.00 in0.0 mm 0.01 in0.3 mm
10:48 AM 73.9°F23.3°C 61.8°F16.6°C 66% 1.0 mph WSW1.6 kmh WSW 1.0 mph1.6 kmh 29.88 in1011.9 mb 0.00 in0.0 mm 0.00 in0.0 mm 0.01 in0.3 mm
10:50 AM 74.0°F23.3°C 59.7°F15.4°C 61% 3.0 mph SW4.8 kmh SW 3.0 mph4.8 kmh 29.88 in1011.9 mb 0.00 in0.0 mm 0.00 in0.0 mm 0.01 in0.3 mm
10:52 AM 74.1°F23.4°C 59.8°F15.4°C 61% 3.0 mph WSW4.8 kmh WSW 4.0 mph6.4 kmh 29.88 in1011.9 mb 0.00 in0.0 mm 0.00 in0.0 mm 0.01 in0.3 mm
10:54 AM 74.2°F23.4°C 60.4°F15.8°C 62% 3.0 mph WSW4.8 kmh WSW 3.0 mph4.8 kmh 29.88 in1011.9 mb 0.00 in0.0 mm 0.00 in0.0 mm 0.01 in0.3 mm
10:56 AM 74.3°F23.5°C 59.5°F15.3°C 60% 6.0 mph SW9.7 kmh SW 6.0 mph9.7 kmh 29.88 in1011.9 mb 0.00 in0.0 mm 0.00 in0.0 mm 0.01 in0.3 mm
10:58 AM 74.4°F23.6°C 59.2°F15.1°C 59% Calm Calm 3.0 mph4.8 kmh 29.88 in1011.9 mb 0.00 in0.0 mm 0.00 in0.0 mm 0.01 in0.3 mm
11:00 AM 74.6°F23.7°C 59.8°F15.4°C 60% 6.0 mph SW9.7 kmh SW 6.0 mph9.7 kmh 29.88 in1011.9 mb 0.00 in0.0 mm 0.00 in0.0 mm 0.01 in0.3 mm
11:02 AM 74.7°F23.7°C 59.4°F15.2°C 59% 1.0 mph SW1.6 kmh SW 2.0 mph3.2 kmh 29.88 in1011.9 mb 0.00 in0.0 mm 0.00 in0.0 mm 0.01 in0.3 mm
11:04 AM 74.8°F23.8°C 59.5°F15.3°C 59% 1.0 mph SW1.6 kmh SW 3.0 mph4.8 kmh 29.88 in1011.9 mb 0.00 in0.0 mm 0.00 in0.0 mm 0.01 in0.3 mm
11:06 AM 75.0°F23.9°C 60.2°F15.7°C 60% 2.0 mph WSW3.2 kmh WSW 2.0 mph3.2 kmh 29.88 in1011.9 mb 0.00 in0.0 mm 0.00 in0.0 mm 0.01 in0.3 mm
11:08 AM 75.1°F23.9°C 59.8°F15.4°C 59% 4.0 mph WSW6.4 kmh WSW 4.0 mph6.4 kmh 29.88 in1011.9 mb 0.00 in0.0 mm 0.00 in0.0 mm 0.01 in0.3 mm
11:10 AM 75.3°F24.1°C 60.0°F15.6°C 59% 1.0 mph WNW1.6 kmh WNW 3.0 mph4.8 kmh 29.87 in1011.5 mb 0.00 in0.0 mm 0.00 in0.0 mm 0.01 in0.3 mm
11:12 AM 75.5°F24.2°C 59.2°F15.1°C 57% 5.0 mph W8.0 kmh W 6.0 mph9.7 kmh 29.88 in1011.9 mb 0.00 in0.0 mm 0.00 in0.0 mm 0.01 in0.3 mm
11:14 AM 75.7°F24.3°C 58.4°F14.7°C 55% 2.0 mph W3.2 kmh W 7.0 mph11.3 kmh 29.87 in1011.5 mb 0.00 in0.0 mm 0.00 in0.0 mm 0.01 in0.3 mm
11:16 AM 75.9°F24.4°C 59.6°F15.3°C 57% Calm Calm 4.0 mph6.4 kmh 29.87 in1011.5 mb 0.00 in0.0 mm 0.00 in0.0 mm 0.01 in0.3 mm
11:18 AM 76.0°F24.4°C 58.7°F14.8°C 55% 2.0 mph WNW3.2 kmh WNW 4.0 mph6.4 kmh 29.87 in1011.5 mb 0.00 in0.0 mm 0.00 in0.0 mm 0.01 in0.3 mm
11:20 AM 76.3°F24.6°C 59.5°F15.3°C 56% 4.0 mph SW6.4 kmh SW 5.0 mph8.0 kmh 29.87 in1011.5 mb 0.00 in0.0 mm 0.00 in0.0 mm 0.01 in0.3 mm
11:22 AM 76.4°F24.7°C 58.5°F14.7°C 54% 3.0 mph WSW4.8 kmh WSW 3.0 mph4.8 kmh 29.87 in1011.5 mb 0.00 in0.0 mm 0.00 in0.0 mm 0.01 in0.3 mm
11:24 AM 76.5°F24.7°C 59.2°F15.1°C 55% 1.0 mph WSW1.6 kmh WSW 3.0 mph4.8 kmh 29.87 in1011.5 mb 0.00 in0.0 mm 0.00 in0.0 mm 0.01 in0.3 mm
11:26 AM 76.6°F24.8°C 59.8°F15.4°C 56% 3.0 mph ESE4.8 kmh ESE 8.0 mph12.9 kmh 29.87 in1011.5 mb 0.00 in0.0 mm 0.00 in0.0 mm 0.01 in0.3 mm
11:28 AM 76.7°F24.8°C 57.2°F14.0°C 51% 2.0 mph SW3.2 kmh SW 4.0 mph6.4 kmh 29.87 in1011.5 mb 0.00 in0.0 mm 0.00 in0.0 mm 0.01 in0.3 mm
11:30 AM 76.8°F24.9°C 59.4°F15.2°C 55% 3.0 mph WSW4.8 kmh WSW 6.0 mph9.7 kmh 29.87 in1011.5 mb 0.00 in0.0 mm 0.00 in0.0 mm 0.01 in0.3 mm
11:32 AM 77.0°F25.0°C 60.6°F15.9°C 57% 3.0 mph WSW4.8 kmh WSW 6.0 mph9.7 kmh 29.87 in1011.5 mb 0.00 in0.0 mm 0.00 in0.0 mm 0.01 in0.3 mm
11:34 AM 77.1°F25.1°C 59.2°F15.1°C 54% Calm Calm 3.0 mph4.8 kmh 29.87 in1011.5 mb 0.00 in0.0 mm 0.00 in0.0 mm 0.01 in0.3 mm
11:36 AM 77.2°F25.1°C 58.8°F14.9°C 53% 1.0 mph NW1.6 kmh NW 2.0 mph3.2 kmh 29.87 in1011.5 mb 0.00 in0.0 mm 0.00 in0.0 mm 0.01 in0.3 mm
11:38 AM 77.2°F25.1°C 59.8°F15.4°C 55% 2.0 mph W3.2 kmh W 2.0 mph3.2 kmh 29.87 in1011.5 mb 0.00 in0.0 mm 0.00 in0.0 mm 0.01 in0.3 mm
11:40 AM 77.3°F25.2°C 58.9°F14.9°C 53% 3.0 mph WSW4.8 kmh WSW 5.0 mph8.0 kmh 29.87 in1011.5 mb 0.00 in0.0 mm 0.00 in0.0 mm 0.01 in0.3 mm
11:42 AM 77.4°F25.2°C 60.0°F15.6°C 55% 3.0 mph WSW4.8 kmh WSW 4.0 mph6.4 kmh 29.87 in1011.5 mb 0.00 in0.0 mm 0.00 in0.0 mm 0.01 in0.3 mm
11:44 AM 77.5°F25.3°C 60.1°F15.6°C 55% 5.0 mph SSW8.0 kmh SSW 5.0 mph8.0 kmh 29.87 in1011.5 mb 0.00 in0.0 mm 0.00 in0.0 mm 0.01 in0.3 mm
11:46 AM 77.4°F25.2°C 58.4°F14.7°C 52% 3.0 mph SW4.8 kmh SW 6.0 mph9.7 kmh 29.87 in1011.5 mb 0.00 in0.0 mm 0.00 in0.0 mm 0.01 in0.3 mm
11:48 AM 77.3°F25.2°C 58.3°F14.6°C 52% 1.0 mph W1.6 kmh W 2.0 mph3.2 kmh 29.87 in1011.5 mb 0.00 in0.0 mm 0.00 in0.0 mm 0.01 in0.3 mm
11:50 AM 77.3°F25.2°C 59.9°F15.5°C 55% 2.0 mph WSW3.2 kmh WSW 2.0 mph3.2 kmh 29.87 in1011.5 mb 0.00 in0.0 mm 0.00 in0.0 mm 0.01 in0.3 mm
11:52 AM 77.3°F25.2°C 59.4°F15.2°C 54% 4.0 mph WNW6.4 kmh WNW 5.0 mph8.0 kmh 29.87 in1011.5 mb 0.00 in0.0 mm 0.00 in0.0 mm 0.01 in0.3 mm
11:54 AM 77.3°F25.2°C 58.9°F14.9°C 53% 6.0 mph SW9.7 kmh SW 6.0 mph9.7 kmh 29.87 in1011.5 mb 0.00 in0.0 mm 0.00 in0.0 mm 0.01 in0.3 mm
11:56 AM 77.2°F25.1°C 57.1°F13.9°C 50% 5.0 mph WNW8.0 kmh WNW 5.0 mph8.0 kmh 29.87 in1011.5 mb 0.00 in0.0 mm 0.00 in0.0 mm 0.01 in0.3 mm
11:58 AM 77.1°F25.1°C 56.5°F13.6°C 49% 5.0 mph NW8.0 kmh NW 5.0 mph8.0 kmh 29.86 in1011.2 mb 0.00 in0.0 mm 0.00 in0.0 mm 0.01 in0.3 mm
12:00 PM 77.1°F25.1°C 57.6°F14.2°C 51% 2.0 mph W3.2 kmh W 2.0 mph3.2 kmh 29.86 in1011.2 mb 0.00 in0.0 mm 0.00 in0.0 mm 0.01 in0.3 mm
12:02 PM 77.1°F25.1°C 58.1°F14.5°C 52% 2.0 mph SW3.2 kmh SW 5.0 mph8.0 kmh 29.86 in1011.2 mb 0.00 in0.0 mm 0.00 in0.0 mm 0.01 in0.3 mm
12:04 PM 77.1°F25.1°C 57.1°F13.9°C 50% 2.0 mph SW3.2 kmh SW 3.0 mph4.8 kmh 29.86 in1011.2 mb 0.00 in0.0 mm 0.00 in0.0 mm 0.01 in0.3 mm
12:06 PM 77.3°F25.2°C 59.4°F15.2°C 54% 2.0 mph SW3.2 kmh SW 2.0 mph3.2 kmh 29.86 in1011.2 mb 0.00 in0.0 mm 0.00 in0.0 mm 0.01 in0.3 mm
12:08 PM 77.5°F25.3°C 58.5°F14.7°C 52% 2.0 mph SW3.2 kmh SW 2.0 mph3.2 kmh 29.86 in1011.2 mb 0.00 in0.0 mm 0.00 in0.0 mm 0.01 in0.3 mm
12:10 PM 77.6°F25.3°C 57.5°F14.2°C 50% 7.0 mph SW11.3 kmh SW 7.0 mph11.3 kmh 29.86 in1011.2 mb 0.00 in0.0 mm 0.00 in0.0 mm 0.01 in0.3 mm
12:12 PM 77.7°F25.4°C 57.0°F13.9°C 49% Calm Calm 5.0 mph8.0 kmh 29.86 in1011.2 mb 0.00 in0.0 mm 0.00 in0.0 mm 0.01 in0.3 mm
12:14 PM 77.8°F25.4°C 57.7°F14.3°C 50% 9.0 mph WSW14.5 kmh WSW 9.0 mph14.5 kmh 29.86 in1011.2 mb 0.00 in0.0 mm 0.00 in0.0 mm 0.01 in0.3 mm
12:16 PM 77.9°F25.5°C 57.2°F14.0°C 49% 3.0 mph WSW4.8 kmh WSW 6.0 mph9.7 kmh 29.86 in1011.2 mb 0.00 in0.0 mm 0.00 in0.0 mm 0.01 in0.3 mm
12:18 PM 77.9°F25.5°C 57.2°F14.0°C 49% 4.0 mph SW6.4 kmh SW 4.0 mph6.4 kmh 29.86 in1011.2 mb 0.00 in0.0 mm 0.00 in0.0 mm 0.01 in0.3 mm
12:20 PM 77.9°F25.5°C 56.1°F13.4°C 47% 6.0 mph SW9.7 kmh SW 7.0 mph11.3 kmh 29.86 in1011.2 mb 0.00 in0.0 mm 0.00 in0.0 mm 0.01 in0.3 mm
12:22 PM 78.0°F25.6°C 56.2°F13.4°C 47% 8.0 mph SW12.9 kmh SW 13.0 mph20.9 kmh 29.86 in1011.2 mb 0.00 in0.0 mm 0.00 in0.0 mm 0.01 in0.3 mm
12:24 PM 78.1°F25.6°C 56.8°F13.8°C 48% Calm Calm 4.0 mph6.4 kmh 29.86 in1011.2 mb 0.00 in0.0 mm 0.00 in0.0 mm 0.01 in0.3 mm
12:26 PM 78.3°F25.7°C 57.0°F13.9°C 48% 4.0 mph WNW6.4 kmh WNW 4.0 mph6.4 kmh 29.86 in1011.2 mb 0.00 in0.0 mm 0.00 in0.0 mm 0.01 in0.3 mm
12:28 PM 78.4°F25.8°C 57.7°F14.3°C 49% 4.0 mph SW6.4 kmh SW 5.0 mph8.0 kmh 29.86 in1011.2 mb 0.00 in0.0 mm 0.00 in0.0 mm 0.01 in0.3 mm
12:30 PM 78.5°F25.8°C 57.2°F14.0°C 48% 2.0 mph W3.2 kmh W 5.0 mph8.0 kmh 29.86 in1011.2 mb 0.00 in0.0 mm 0.00 in0.0 mm 0.01 in0.3 mm
12:32 PM 78.6°F25.9°C 56.1°F13.4°C 46% 5.0 mph WSW8.0 kmh WSW 6.0 mph9.7 kmh 29.86 in1011.2 mb 0.00 in0.0 mm 0.00 in0.0 mm 0.01 in0.3 mm
12:34 PM 78.7°F25.9°C 57.4°F14.1°C 48% 12.0 mph SW19.3 kmh SW 12.0 mph19.3 kmh 29.86 in1011.2 mb 0.00 in0.0 mm 0.00 in0.0 mm 0.01 in0.3 mm
12:36 PM 78.6°F25.9°C 56.7°F13.7°C 47% 5.0 mph SW8.0 kmh SW 6.0 mph9.7 kmh 29.86 in1011.2 mb 0.00 in0.0 mm 0.00 in0.0 mm 0.01 in0.3 mm
12:38 PM 78.6°F25.9°C 56.7°F13.7°C 47% 3.0 mph SW4.8 kmh SW 5.0 mph8.0 kmh 29.86 in1011.2 mb 0.00 in0.0 mm 0.00 in0.0 mm 0.01 in0.3 mm
12:40 PM 78.5°F25.8°C 55.4°F13.0°C 45% 5.0 mph SSW8.0 kmh SSW 11.0 mph17.7 kmh 29.86 in1011.2 mb 0.00 in0.0 mm 0.00 in0.0 mm 0.01 in0.3 mm
12:42 PM 78.4°F25.8°C 55.9°F13.3°C 46% 9.0 mph WSW14.5 kmh WSW 9.0 mph14.5 kmh 29.86 in1011.2 mb 0.00 in0.0 mm 0.00 in0.0 mm 0.01 in0.3 mm
12:44 PM 78.4°F25.8°C 56.5°F13.6°C 47% 10.0 mph SW16.1 kmh SW 10.0 mph16.1 kmh 29.86 in1011.2 mb 0.00 in0.0 mm 0.00 in0.0 mm 0.01 in0.3 mm
12:46 PM 78.3°F25.7°C 54.6°F12.6°C 44% 5.0 mph SW8.0 kmh SW 6.0 mph9.7 kmh 29.85 in1010.8 mb 0.00 in0.0 mm 0.00 in0.0 mm 0.01 in0.3 mm
12:48 PM 78.2°F25.7°C 55.8°F13.2°C 46% 4.0 mph SW6.4 kmh SW 4.0 mph6.4 kmh 29.85 in1010.8 mb 0.00 in0.0 mm 0.00 in0.0 mm 0.01 in0.3 mm
12:50 PM 77.9°F25.5°C 54.9°F12.7°C 45% 3.0 mph WSW4.8 kmh WSW 10.0 mph16.1 kmh 29.85 in1010.8 mb 0.00 in0.0 mm 0.00 in0.0 mm 0.01 in0.3 mm
12:52 PM 77.6°F25.3°C 54.6°F12.6°C 45% 2.0 mph NW3.2 kmh NW 5.0 mph8.0 kmh 29.85 in1010.8 mb 0.00 in0.0 mm 0.00 in0.0 mm 0.01 in0.3 mm
12:54 PM 77.4°F25.2°C 55.6°F13.1°C 47% 2.0 mph WSW3.2 kmh WSW 4.0 mph6.4 kmh 29.85 in1010.8 mb 0.00 in0.0 mm 0.00 in0.0 mm 0.01 in0.3 mm
12:56 PM 77.2°F25.1°C 55.4°F13.0°C 47% 4.0 mph SW6.4 kmh SW 4.0 mph6.4 kmh 29.85 in1010.8 mb 0.00 in0.0 mm 0.00 in0.0 mm 0.01 in0.3 mm
12:58 PM 77.1°F25.1°C 55.3°F12.9°C 47% 3.0 mph W4.8 kmh W 11.0 mph17.7 kmh 29.85 in1010.8 mb 0.00 in0.0 mm 0.00 in0.0 mm 0.01 in0.3 mm
01:00 PM 77.1°F25.1°C 56.5°F13.6°C 49% 6.0 mph SW9.7 kmh SW 6.0 mph9.7 kmh 29.85 in1010.8 mb 0.00 in0.0 mm 0.00 in0.0 mm 0.01 in0.3 mm
01:02 PM 77.3°F25.2°C 56.1°F13.4°C 48% 4.0 mph WSW6.4 kmh WSW 4.0 mph6.4 kmh 29.85 in1010.8 mb 0.00 in0.0 mm 0.00 in0.0 mm 0.01 in0.3 mm
01:04 PM 77.6°F25.3°C 55.2°F12.9°C 46% 5.0 mph SW8.0 kmh SW 5.0 mph8.0 kmh 29.85 in1010.8 mb 0.00 in0.0 mm 0.00 in0.0 mm 0.01 in0.3 mm
01:06 PM 77.7°F25.4°C 54.7°F12.6°C 45% 2.0 mph W3.2 kmh W 3.0 mph4.8 kmh 29.85 in1010.8 mb 0.00 in0.0 mm 0.00 in0.0 mm 0.01 in0.3 mm
01:08 PM 77.9°F25.5°C 55.5°F13.1°C 46% 4.0 mph SW6.4 kmh SW 4.0 mph6.4 kmh 29.84 in1010.5 mb 0.00 in0.0 mm 0.00 in0.0 mm 0.01 in0.3 mm
01:10 PM 78.0°F25.6°C 55.6°F13.1°C 46% 6.0 mph SW9.7 kmh SW 6.0 mph9.7 kmh 29.84 in1010.5 mb 0.00 in0.0 mm 0.00 in0.0 mm 0.01 in0.3 mm
01:12 PM 78.2°F25.7°C 55.8°F13.2°C 46% 2.0 mph WSW3.2 kmh WSW 4.0 mph6.4 kmh 29.84 in1010.5 mb 0.00 in0.0 mm 0.00 in0.0 mm 0.01 in0.3 mm
01:14 PM 78.4°F25.8°C 55.9°F13.3°C 46% 7.0 mph WNW11.3 kmh WNW 7.0 mph11.3 kmh 29.84 in1010.5 mb 0.00 in0.0 mm 0.00 in0.0 mm 0.01 in0.3 mm
01:16 PM 78.6°F25.9°C 55.5°F13.1°C 45% 1.0 mph SW1.6 kmh SW 3.0 mph4.8 kmh 29.84 in1010.5 mb 0.00 in0.0 mm 0.00 in0.0 mm 0.01 in0.3 mm
01:18 PM 78.6°F25.9°C 53.6°F12.0°C 42% 2.0 mph WSW3.2 kmh WSW 5.0 mph8.0 kmh 29.84 in1010.5 mb 0.00 in0.0 mm 0.00 in0.0 mm 0.01 in0.3 mm
01:20 PM 78.4°F25.8°C 54.1°F12.3°C 43% 5.0 mph SW8.0 kmh SW 6.0 mph9.7 kmh 29.84 in1010.5 mb 0.00 in0.0 mm 0.00 in0.0 mm 0.01 in0.3 mm
01:22 PM 78.2°F25.7°C 54.5°F12.5°C 44% 10.0 mph W16.1 kmh W 10.0 mph16.1 kmh 29.84 in1010.5 mb 0.00 in0.0 mm 0.00 in0.0 mm 0.01 in0.3 mm
01:24 PM 77.9°F25.5°C 53.0°F11.7°C 42% 4.0 mph WSW6.4 kmh WSW 11.0 mph17.7 kmh 29.84 in1010.5 mb 0.00 in0.0 mm 0.00 in0.0 mm 0.01 in0.3 mm
01:26 PM 77.7°F25.4°C 54.1°F12.3°C 44% 6.0 mph WNW9.7 kmh WNW 7.0 mph11.3 kmh 29.84 in1010.5 mb 0.00 in0.0 mm 0.00 in0.0 mm 0.01 in0.3 mm
01:28 PM 77.6°F25.3°C 56.4°F13.6°C 48% 12.0 mph WSW19.3 kmh WSW 12.0 mph19.3 kmh 29.84 in1010.5 mb 0.00 in0.0 mm 0.00 in0.0 mm 0.01 in0.3 mm
01:30 PM 77.7°F25.4°C 54.7°F12.6°C 45% 3.0 mph W4.8 kmh W 3.0 mph4.8 kmh 29.84 in1010.5 mb 0.00 in0.0 mm 0.00 in0.0 mm 0.01 in0.3 mm
01:32 PM 77.7°F25.4°C 55.3°F12.9°C 46% 1.0 mph S1.6 kmh S 3.0 mph4.8 kmh 29.84 in1010.5 mb 0.00 in0.0 mm 0.00 in0.0 mm 0.01 in0.3 mm
01:34 PM 77.7°F25.4°C 55.3°F12.9°C 46% 6.0 mph WSW9.7 kmh WSW 6.0 mph9.7 kmh 29.84 in1010.5 mb 0.00 in0.0 mm 0.00 in0.0 mm 0.01 in0.3 mm
01:36 PM 77.7°F25.4°C 54.1°F12.3°C 44% 9.0 mph SW14.5 kmh SW 10.0 mph16.1 kmh 29.84 in1010.5 mb 0.00 in0.0 mm 0.00 in0.0 mm 0.01 in0.3 mm
01:38 PM 77.7°F25.4°C 53.5°F11.9°C 43% 2.0 mph SW3.2 kmh SW 4.0 mph6.4 kmh 29.84 in1010.5 mb 0.00 in0.0 mm 0.00 in0.0 mm 0.01 in0.3 mm
01:40 PM 77.9°F25.5°C 54.9°F12.7°C 45% 5.0 mph SW8.0 kmh SW 6.0 mph9.7 kmh 29.84 in1010.5 mb 0.00 in0.0 mm 0.00 in0.0 mm 0.01 in0.3 mm
01:42 PM 78.1°F25.6°C 55.7°F13.2°C 46% 4.0 mph SW6.4 kmh SW 4.0 mph6.4 kmh 29.84 in1010.5 mb 0.00 in0.0 mm 0.00 in0.0 mm 0.01 in0.3 mm
01:44 PM 78.4°F25.8°C 55.9°F13.3°C 46% 6.0 mph W9.7 kmh W 6.0 mph9.7 kmh 29.84 in1010.5 mb 0.00 in0.0 mm 0.00 in0.0 mm 0.01 in0.3 mm
01:46 PM 78.8°F26.0°C 55.1°F12.8°C 44% 6.0 mph SW9.7 kmh SW 6.0 mph9.7 kmh 29.84 in1010.5 mb 0.00 in0.0 mm 0.00 in0.0 mm 0.01 in0.3 mm
01:48 PM 79.1°F26.2°C 56.0°F13.3°C 45% 10.0 mph SW16.1 kmh SW 11.0 mph17.7 kmh 29.83 in1010.2 mb 0.00 in0.0 mm 0.00 in0.0 mm 0.01 in0.3 mm
01:50 PM 79.3°F26.3°C 52.9°F11.6°C 40% 5.0 mph W8.0 kmh W 7.0 mph11.3 kmh 29.84 in1010.5 mb 0.00 in0.0 mm 0.00 in0.0 mm 0.01 in0.3 mm
01:52 PM 79.4°F26.3°C 54.3°F12.4°C 42% 3.0 mph WSW4.8 kmh WSW 8.0 mph12.9 kmh 29.84 in1010.5 mb 0.00 in0.0 mm 0.00 in0.0 mm 0.01 in0.3 mm
01:54 PM 79.6°F26.4°C 55.2°F12.9°C 43% 10.0 mph SW16.1 kmh SW 10.0 mph16.1 kmh 29.84 in1010.5 mb 0.00 in0.0 mm 0.00 in0.0 mm 0.01 in0.3 mm
01:56 PM 79.7°F26.5°C 51.9°F11.1°C 38% 12.0 mph W19.3 kmh W 12.0 mph19.3 kmh 29.84 in1010.5 mb 0.00 in0.0 mm 0.00 in0.0 mm 0.01 in0.3 mm
01:58 PM 79.6°F26.4°C 53.2°F11.8°C 40% 10.0 mph NW16.1 kmh NW 12.0 mph19.3 kmh 29.84 in1010.5 mb 0.00 in0.0 mm 0.00 in0.0 mm 0.01 in0.3 mm
02:00 PM 79.4°F26.3°C 53.0°F11.7°C 40% 8.0 mph WSW12.9 kmh WSW 11.0 mph17.7 kmh 29.84 in1010.5 mb 0.00 in0.0 mm 0.00 in0.0 mm 0.01 in0.3 mm
02:02 PM 79.1°F26.2°C 52.7°F11.5°C 40% 12.0 mph WSW19.3 kmh WSW 12.0 mph19.3 kmh 29.84 in1010.5 mb 0.00 in0.0 mm 0.00 in0.0 mm 0.01 in0.3 mm
02:04 PM 78.7°F25.9°C 53.1°F11.7°C 41% 4.0 mph WSW6.4 kmh WSW 7.0 mph11.3 kmh 29.84 in1010.5 mb 0.00 in0.0 mm 0.00 in0.0 mm 0.01 in0.3 mm
02:06 PM 78.3°F25.7°C 53.3°F11.8°C 42% 6.0 mph W9.7 kmh W 7.0 mph11.3 kmh 29.84 in1010.5 mb 0.00 in0.0 mm 0.00 in0.0 mm 0.01 in0.3 mm
02:08 PM 78.1°F25.6°C 55.1°F12.8°C 45% 3.0 mph NW4.8 kmh NW 9.0 mph14.5 kmh 29.84 in1010.5 mb 0.00 in0.0 mm 0.00 in0.0 mm 0.01 in0.3 mm
02:10 PM 77.8°F25.4°C 56.6°F13.7°C 48% 6.0 mph WNW9.7 kmh WNW 6.0 mph9.7 kmh 29.84 in1010.5 mb 0.00 in0.0 mm 0.00 in0.0 mm 0.01 in0.3 mm
02:12 PM 77.5°F25.3°C 55.7°F13.2°C 47% 9.0 mph NW14.5 kmh NW 12.0 mph19.3 kmh 29.85 in1010.8 mb 0.00 in0.0 mm 0.00 in0.0 mm 0.01 in0.3 mm
02:14 PM 77.0°F25.0°C 55.3°F12.9°C 47% 3.0 mph NW4.8 kmh NW 11.0 mph17.7 kmh 29.85 in1010.8 mb 0.00 in0.0 mm 0.00 in0.0 mm 0.01 in0.3 mm
02:16 PM 76.6°F24.8°C 56.0°F13.3°C 49% 6.0 mph NW9.7 kmh NW 9.0 mph14.5 kmh 29.85 in1010.8 mb 0.00 in0.0 mm 0.00 in0.0 mm 0.01 in0.3 mm
02:18 PM 76.1°F24.5°C 55.0°F12.8°C 48% 2.0 mph N3.2 kmh N 5.0 mph8.0 kmh 29.85 in1010.8 mb 0.00 in0.0 mm 0.00 in0.0 mm 0.01 in0.3 mm
02:20 PM 75.6°F24.2°C 55.1°F12.8°C 49% 3.0 mph WNW4.8 kmh WNW 10.0 mph16.1 kmh 29.85 in1010.8 mb 0.00 in0.0 mm 0.00 in0.0 mm 0.01 in0.3 mm
02:22 PM 75.1°F23.9°C 55.8°F13.2°C 51% 6.0 mph SW9.7 kmh SW 6.0 mph9.7 kmh 29.85 in1010.8 mb 0.00 in0.0 mm 0.00 in0.0 mm 0.01 in0.3 mm
02:24 PM 74.7°F23.7°C 56.5°F13.6°C 53% 6.0 mph WNW9.7 kmh WNW 11.0 mph17.7 kmh 29.85 in1010.8 mb 0.00 in0.0 mm 0.00 in0.0 mm 0.01 in0.3 mm
02:26 PM 74.3°F23.5°C 56.1°F13.4°C 53% 5.0 mph NNW8.0 kmh NNW 10.0 mph16.1 kmh 29.84 in1010.5 mb 0.00 in0.0 mm 0.00 in0.0 mm 0.01 in0.3 mm
02:28 PM 74.0°F23.3°C 55.8°F13.2°C 53% 4.0 mph W6.4 kmh W 10.0 mph16.1 kmh 29.84 in1010.5 mb 0.00 in0.0 mm 0.00 in0.0 mm 0.01 in0.3 mm
02:30 PM 73.7°F23.2°C 56.0°F13.3°C 54% 1.0 mph NW1.6 kmh NW 4.0 mph6.4 kmh 29.84 in1010.5 mb 0.00 in0.0 mm 0.00 in0.0 mm 0.01 in0.3 mm
02:32 PM 73.5°F23.1°C 56.9°F13.8°C 56% 1.0 mph NW1.6 kmh NW 3.0 mph4.8 kmh 29.84 in1010.5 mb 0.00 in0.0 mm 0.00 in0.0 mm 0.01 in0.3 mm
02:34 PM 73.5°F23.1°C 57.8°F14.3°C 58% 2.0 mph NW3.2 kmh NW 2.0 mph3.2 kmh 29.84 in1010.5 mb 0.00 in0.0 mm 0.00 in0.0 mm 0.01 in0.3 mm
02:36 PM 73.5°F23.1°C 56.9°F13.8°C 56% 4.0 mph W6.4 kmh W 4.0 mph6.4 kmh 29.84 in1010.5 mb 0.00 in0.0 mm 0.00 in0.0 mm 0.01 in0.3 mm
02:38 PM 73.7°F23.2°C 57.1°F13.9°C 56% 2.0 mph W3.2 kmh W 2.0 mph3.2 kmh 29.84 in1010.5 mb 0.00 in0.0 mm 0.00 in0.0 mm 0.01 in0.3 mm
02:44 PM 74.5°F23.6°C 58.3°F14.6°C 57% 4.0 mph SW6.4 kmh SW 6.0 mph9.7 kmh 29.84 in1010.5 mb 0.00 in0.0 mm 0.00 in0.0 mm 0.01 in0.3 mm
02:46 PM 74.8°F23.8°C 56.0°F13.3°C 52% 7.0 mph NW11.3 kmh NW 7.0 mph11.3 kmh 29.84 in1010.5 mb 0.00 in0.0 mm 0.00 in0.0 mm 0.01 in0.3 mm
02:48 PM 75.1°F23.9°C 56.8°F13.8°C 53% 5.0 mph WNW8.0 kmh WNW 5.0 mph8.0 kmh 29.84 in1010.5 mb 0.00 in0.0 mm 0.00 in0.0 mm 0.01 in0.3 mm
02:50 PM 75.3°F24.1°C 55.4°F13.0°C 50% 2.0 mph NW3.2 kmh NW 3.0 mph4.8 kmh 29.84 in1010.5 mb 0.00 in0.0 mm 0.00 in0.0 mm 0.01 in0.3 mm
02:52 PM 75.5°F24.2°C 56.7°F13.7°C 52% 3.0 mph WNW4.8 kmh WNW 3.0 mph4.8 kmh 29.84 in1010.5 mb 0.00 in0.0 mm 0.00 in0.0 mm 0.01 in0.3 mm
02:54 PM 75.7°F24.3°C 56.3°F13.5°C 51% 3.0 mph WNW4.8 kmh WNW 3.0 mph4.8 kmh 29.84 in1010.5 mb 0.00 in0.0 mm 0.00 in0.0 mm 0.01 in0.3 mm
02:56 PM 76.0°F24.4°C 56.6°F13.7°C 51% 4.0 mph WNW6.4 kmh WNW 7.0 mph11.3 kmh 29.84 in1010.5 mb 0.00 in0.0 mm 0.00 in0.0 mm 0.01 in0.3 mm
02:58 PM 76.2°F24.6°C 55.7°F13.2°C 49% 1.0 mph W1.6 kmh W 6.0 mph9.7 kmh 29.84 in1010.5 mb 0.00 in0.0 mm 0.00 in0.0 mm 0.01 in0.3 mm
03:00 PM 76.3°F24.6°C 55.8°F13.2°C 49% 12.0 mph WNW19.3 kmh WNW 12.0 mph19.3 kmh 29.84 in1010.5 mb 0.00 in0.0 mm 0.00 in0.0 mm 0.01 in0.3 mm
03:02 PM 76.3°F24.6°C 55.8°F13.2°C 49% 2.0 mph WSW3.2 kmh WSW 9.0 mph14.5 kmh 29.84 in1010.5 mb 0.00 in0.0 mm 0.00 in0.0 mm 0.01 in0.3 mm
03:04 PM 76.4°F24.7°C 56.4°F13.6°C 50% 3.0 mph NW4.8 kmh NW 4.0 mph6.4 kmh 29.84 in1010.5 mb 0.00 in0.0 mm 0.00 in0.0 mm 0.01 in0.3 mm
03:06 PM 76.5°F24.7°C 57.1°F13.9°C 51% 3.0 mph WSW4.8 kmh WSW 8.0 mph12.9 kmh 29.84 in1010.5 mb 0.00 in0.0 mm 0.00 in0.0 mm 0.01 in0.3 mm
03:08 PM 76.6°F24.8°C 57.7°F14.3°C 52% 4.0 mph NW6.4 kmh NW 4.0 mph6.4 kmh 29.84 in1010.5 mb 0.00 in0.0 mm 0.00 in0.0 mm 0.01 in0.3 mm
03:10 PM 76.7°F24.8°C 57.8°F14.3°C 52% Calm Calm 2.0 mph3.2 kmh 29.84 in1010.5 mb 0.00 in0.0 mm 0.00 in0.0 mm 0.01 in0.3 mm
03:12 PM 76.7°F24.8°C 57.8°F14.3°C 52% 9.0 mph NW14.5 kmh NW 10.0 mph16.1 kmh 29.84 in1010.5 mb 0.00 in0.0 mm 0.00 in0.0 mm 0.01 in0.3 mm
03:14 PM 76.5°F24.7°C 58.1°F14.5°C 53% 3.0 mph NNW4.8 kmh NNW 7.0 mph11.3 kmh 29.85 in1010.8 mb 0.00 in0.0 mm 0.00 in0.0 mm 0.01 in0.3 mm
03:16 PM 76.1°F24.5°C 57.8°F14.3°C 53% 4.0 mph W6.4 kmh W 6.0 mph9.7 kmh 29.84 in1010.5 mb 0.00 in0.0 mm 0.00 in0.0 mm 0.01 in0.3 mm
03:18 PM 75.7°F24.3°C 57.4°F14.1°C 53% 5.0 mph NNW8.0 kmh NNW 10.0 mph16.1 kmh 29.84 in1010.5 mb 0.00 in0.0 mm 0.00 in0.0 mm 0.01 in0.3 mm
03:20 PM 75.4°F24.1°C 57.1°F13.9°C 53% 3.0 mph W4.8 kmh W 5.0 mph8.0 kmh 29.84 in1010.5 mb 0.00 in0.0 mm 0.00 in0.0 mm 0.01 in0.3 mm
03:22 PM 75.2°F24.0°C 56.4°F13.6°C 52% 3.0 mph NW4.8 kmh NW 8.0 mph12.9 kmh 29.84 in1010.5 mb 0.00 in0.0 mm 0.00 in0.0 mm 0.01 in0.3 mm
03:24 PM 75.2°F24.0°C 56.9°F13.8°C 53% 3.0 mph WNW4.8 kmh WNW 4.0 mph6.4 kmh 29.84 in1010.5 mb 0.00 in0.0 mm 0.00 in0.0 mm 0.01 in0.3 mm
03:26 PM 75.3°F24.1°C 55.9°F13.3°C 51% 4.0 mph WSW6.4 kmh WSW 5.0 mph8.0 kmh 29.84 in1010.5 mb 0.00 in0.0 mm 0.00 in0.0 mm 0.01 in0.3 mm
03:28 PM 75.5°F24.2°C 56.7°F13.7°C 52% 2.0 mph NW3.2 kmh NW 2.0 mph3.2 kmh 29.84 in1010.5 mb 0.00 in0.0 mm 0.00 in0.0 mm 0.01 in0.3 mm
03:30 PM 75.7°F24.3°C 56.9°F13.8°C 52% 4.0 mph NNW6.4 kmh NNW 4.0 mph6.4 kmh 29.84 in1010.5 mb 0.00 in0.0 mm 0.00 in0.0 mm 0.01 in0.3 mm
03:32 PM 75.7°F24.3°C 55.8°F13.2°C 50% 1.0 mph NNW1.6 kmh NNW 2.0 mph3.2 kmh 29.84 in1010.5 mb 0.00 in0.0 mm 0.00 in0.0 mm 0.01 in0.3 mm
03:34 PM 75.6°F24.2°C 55.7°F13.2°C 50% 1.0 mph W1.6 kmh W 1.0 mph1.6 kmh 29.84 in1010.5 mb 0.00 in0.0 mm 0.00 in0.0 mm 0.01 in0.3 mm
03:36 PM 75.6°F24.2°C 55.7°F13.2°C 50% 1.0 mph W1.6 kmh W 2.0 mph3.2 kmh 29.84 in1010.5 mb 0.00 in0.0 mm 0.00 in0.0 mm 0.01 in0.3 mm
03:38 PM 75.4°F24.1°C 54.9°F12.7°C 49% 5.0 mph W8.0 kmh W 5.0 mph8.0 kmh 29.84 in1010.5 mb 0.00 in0.0 mm 0.00 in0.0 mm 0.01 in0.3 mm
03:40 PM 75.2°F24.0°C 55.3°F12.9°C 50% 4.0 mph W6.4 kmh W 7.0 mph11.3 kmh 29.84 in1010.5 mb 0.00 in0.0 mm 0.00 in0.0 mm 0.01 in0.3 mm
03:42 PM 74.9°F23.8°C 54.5°F12.5°C 49% 3.0 mph W4.8 kmh W 5.0 mph8.0 kmh 29.84 in1010.5 mb 0.00 in0.0 mm 0.00 in0.0 mm 0.01 in0.3 mm
03:44 PM 74.7°F23.7°C 54.8°F12.7°C 50% 2.0 mph W3.2 kmh W 4.0 mph6.4 kmh 29.84 in1010.5 mb 0.00 in0.0 mm 0.00 in0.0 mm 0.01 in0.3 mm
03:46 PM 74.6°F23.7°C 54.8°F12.7°C 50% 2.0 mph N3.2 kmh N 4.0 mph6.4 kmh 29.84 in1010.5 mb 0.00 in0.0 mm 0.00 in0.0 mm 0.01 in0.3 mm
03:48 PM 74.4°F23.6°C 54.6°F12.6°C 50% 2.0 mph WNW3.2 kmh WNW 2.0 mph3.2 kmh 29.84 in1010.5 mb 0.00 in0.0 mm 0.00 in0.0 mm 0.01 in0.3 mm
03:50 PM 74.3°F23.5°C 55.6°F13.1°C 52% 2.0 mph WNW3.2 kmh WNW 4.0 mph6.4 kmh 29.84 in1010.5 mb 0.00 in0.0 mm 0.00 in0.0 mm 0.01 in0.3 mm
03:52 PM 74.3°F23.5°C 55.0°F12.8°C 51% 3.0 mph WNW4.8 kmh WNW 4.0 mph6.4 kmh 29.84 in1010.5 mb 0.00 in0.0 mm 0.00 in0.0 mm 0.01 in0.3 mm
03:54 PM 74.3°F23.5°C 56.1°F13.4°C 53% 1.0 mph WNW1.6 kmh WNW 2.0 mph3.2 kmh 29.84 in1010.5 mb 0.00 in0.0 mm 0.00 in0.0 mm 0.01 in0.3 mm
03:56 PM 74.4°F23.6°C 56.7°F13.7°C 54% 1.0 mph NE1.6 kmh NE 4.0 mph6.4 kmh 29.84 in1010.5 mb 0.00 in0.0 mm 0.00 in0.0 mm 0.01 in0.3 mm
03:58 PM 74.5°F23.6°C 55.7°F13.2°C 52% Calm Calm -- 29.83 in1010.2 mb 0.00 in0.0 mm 0.00 in0.0 mm 0.01 in0.3 mm
04:00 PM 74.6°F23.7°C 56.4°F13.6°C 53% 4.0 mph NW6.4 kmh NW 6.0 mph9.7 kmh 29.84 in1010.5 mb 0.00 in0.0 mm 0.00 in0.0 mm 0.01 in0.3 mm
04:02 PM 74.6°F23.7°C 56.4°F13.6°C 53% Calm Calm 2.0 mph3.2 kmh 29.83 in1010.2 mb 0.00 in0.0 mm 0.00 in0.0 mm 0.01 in0.3 mm
04:04 PM 74.6°F23.7°C 56.4°F13.6°C 53% Calm Calm 2.0 mph3.2 kmh 29.83 in1010.2 mb 0.00 in0.0 mm 0.00 in0.0 mm 0.01 in0.3 mm
04:06 PM 74.6°F23.7°C 57.4°F14.1°C 55% Calm Calm 5.0 mph8.0 kmh 29.83 in1010.2 mb 0.00 in0.0 mm 0.00 in0.0 mm 0.01 in0.3 mm
04:08 PM 74.7°F23.7°C 57.0°F13.9°C 54% 1.0 mph WSW1.6 kmh WSW 3.0 mph4.8 kmh 29.83 in1010.2 mb 0.00 in0.0 mm 0.00 in0.0 mm 0.01 in0.3 mm
04:10 PM 74.9°F23.8°C 57.2°F14.0°C 54% Calm Calm 1.0 mph1.6 kmh 29.83 in1010.2 mb 0.00 in0.0 mm 0.00 in0.0 mm 0.01 in0.3 mm
04:12 PM 75.0°F23.9°C 56.7°F13.7°C 53% 1.0 mph NNW1.6 kmh NNW 3.0 mph4.8 kmh 29.83 in1010.2 mb 0.00 in0.0 mm 0.00 in0.0 mm 0.01 in0.3 mm
04:14 PM 75.2°F24.0°C 57.4°F14.1°C 54% 5.0 mph NW8.0 kmh NW 9.0 mph14.5 kmh 29.83 in1010.2 mb 0.00 in0.0 mm 0.00 in0.0 mm 0.01 in0.3 mm
04:16 PM 75.4°F24.1°C 56.0°F13.3°C 51% 3.0 mph W4.8 kmh W 3.0 mph4.8 kmh 29.83 in1010.2 mb 0.00 in0.0 mm 0.00 in0.0 mm 0.01 in0.3 mm
04:18 PM 75.6°F24.2°C 56.2°F13.4°C 51% 2.0 mph WNW3.2 kmh WNW 4.0 mph6.4 kmh 29.83 in1010.2 mb 0.00 in0.0 mm 0.00 in0.0 mm 0.01 in0.3 mm
04:20 PM 75.7°F24.3°C 56.3°F13.5°C 51% 4.0 mph NW6.4 kmh NW 4.0 mph6.4 kmh 29.83 in1010.2 mb 0.00 in0.0 mm 0.00 in0.0 mm 0.01 in0.3 mm
04:22 PM 75.6°F24.2°C 56.2°F13.4°C 51% 4.0 mph SW6.4 kmh SW 8.0 mph12.9 kmh 29.83 in1010.2 mb 0.00 in0.0 mm 0.00 in0.0 mm 0.01 in0.3 mm
04:24 PM 75.4°F24.1°C 56.6°F13.7°C 52% 2.0 mph WNW3.2 kmh WNW 3.0 mph4.8 kmh 29.84 in1010.5 mb 0.00 in0.0 mm 0.00 in0.0 mm 0.01 in0.3 mm
04:26 PM 75.3°F24.1°C 56.5°F13.6°C 52% 3.0 mph W4.8 kmh W 9.0 mph14.5 kmh 29.84 in1010.5 mb 0.00 in0.0 mm 0.00 in0.0 mm 0.01 in0.3 mm
04:28 PM 75.1°F23.9°C 56.3°F13.5°C 52% 3.0 mph SW4.8 kmh SW 6.0 mph9.7 kmh 29.84 in1010.5 mb 0.00 in0.0 mm 0.00 in0.0 mm 0.01 in0.3 mm
04:30 PM 75.0°F23.9°C 56.7°F13.7°C 53% 1.0 mph WSW1.6 kmh WSW 7.0 mph11.3 kmh 29.84 in1010.5 mb 0.00 in0.0 mm 0.00 in0.0 mm 0.01 in0.3 mm
04:32 PM 75.0°F23.9°C 56.2°F13.4°C 52% 4.0 mph NW6.4 kmh NW 4.0 mph6.4 kmh 29.83 in1010.2 mb 0.10 in2.5 mm 3.00 in76.2 mm 0.11 in2.8 mm
04:34 PM 75.0°F23.9°C 57.3°F14.1°C 54% 1.0 mph NW1.6 kmh NW 1.0 mph1.6 kmh 29.84 in1010.5 mb 0.10 in2.5 mm 0.00 in0.0 mm 0.11 in2.8 mm
04:36 PM 75.1°F23.9°C 56.3°F13.5°C 52% Calm Calm 1.0 mph1.6 kmh 29.84 in1010.5 mb 0.10 in2.5 mm 0.00 in0.0 mm 0.11 in2.8 mm
04:38 PM 75.1°F23.9°C 56.3°F13.5°C 52% 4.0 mph NW6.4 kmh NW 7.0 mph11.3 kmh 29.84 in1010.5 mb 0.10 in2.5 mm 0.00 in0.0 mm 0.11 in2.8 mm
04:40 PM 75.1°F23.9°C 56.8°F13.8°C 53% 1.0 mph N1.6 kmh N 2.0 mph3.2 kmh 29.84 in1010.5 mb 0.10 in2.5 mm 0.00 in0.0 mm 0.11 in2.8 mm
04:42 PM 75.0°F23.9°C 57.3°F14.1°C 54% 1.0 mph NNW1.6 kmh NNW 2.0 mph3.2 kmh 29.84 in1010.5 mb 0.10 in2.5 mm 0.00 in0.0 mm 0.11 in2.8 mm
04:44 PM 74.9°F23.8°C 57.2°F14.0°C 54% 2.0 mph WNW3.2 kmh WNW 7.0 mph11.3 kmh 29.84 in1010.5 mb 0.10 in2.5 mm 0.00 in0.0 mm 0.11 in2.8 mm
04:46 PM 74.8°F23.8°C 56.5°F13.6°C 53% 6.0 mph N9.7 kmh N 6.0 mph9.7 kmh 29.84 in1010.5 mb 0.10 in2.5 mm 0.00 in0.0 mm 0.11 in2.8 mm
04:48 PM 74.7°F23.7°C 55.9°F13.3°C 52% 2.0 mph WNW3.2 kmh WNW 3.0 mph4.8 kmh 29.84 in1010.5 mb 0.10 in2.5 mm 0.00 in0.0 mm 0.11 in2.8 mm
04:50 PM 74.6°F23.7°C 55.8°F13.2°C 52% Calm Calm 1.0 mph1.6 kmh 29.84 in1010.5 mb 0.10 in2.5 mm 0.00 in0.0 mm 0.11 in2.8 mm
04:52 PM 74.4°F23.6°C 56.7°F13.7°C 54% 2.0 mph NW3.2 kmh NW 2.0 mph3.2 kmh 29.84 in1010.5 mb 0.10 in2.5 mm 0.00 in0.0 mm 0.11 in2.8 mm
04:54 PM 74.3°F23.5°C 56.1°F13.4°C 53% 2.0 mph WNW3.2 kmh WNW 6.0 mph9.7 kmh 29.83 in1010.2 mb 0.10 in2.5 mm 0.00 in0.0 mm 0.11 in2.8 mm
04:56 PM 74.3°F23.5°C 55.6°F13.1°C 52% 2.0 mph WNW3.2 kmh WNW 5.0 mph8.0 kmh 29.84 in1010.5 mb 0.10 in2.5 mm 0.00 in0.0 mm 0.11 in2.8 mm
04:58 PM 74.3°F23.5°C 55.6°F13.1°C 52% 3.0 mph NNW4.8 kmh NNW 3.0 mph4.8 kmh 29.83 in1010.2 mb 0.10 in2.5 mm 0.00 in0.0 mm 0.11 in2.8 mm
05:00 PM 74.3°F23.5°C 55.0°F12.8°C 51% 3.0 mph W4.8 kmh W 3.0 mph4.8 kmh 29.83 in1010.2 mb 0.10 in2.5 mm 0.00 in0.0 mm 0.11 in2.8 mm
05:02 PM 74.3°F23.5°C 55.6°F13.1°C 52% 2.0 mph W3.2 kmh W 4.0 mph6.4 kmh 29.84 in1010.5 mb 0.10 in2.5 mm 0.00 in0.0 mm 0.11 in2.8 mm
05:04 PM 74.4°F23.6°C 56.2°F13.4°C 53% 4.0 mph W6.4 kmh W 4.0 mph6.4 kmh 29.84 in1010.5 mb 0.10 in2.5 mm 0.00 in0.0 mm 0.11 in2.8 mm
05:06 PM 74.4°F23.6°C 55.7°F13.2°C 52% 3.0 mph WNW4.8 kmh WNW 3.0 mph4.8 kmh 29.83 in1010.2 mb 0.10 in2.5 mm 0.00 in0.0 mm 0.11 in2.8 mm
05:08 PM 74.6°F23.7°C 54.8°F12.7°C 50% 6.0 mph WNW9.7 kmh WNW 6.0 mph9.7 kmh 29.84 in1010.5 mb 0.10 in2.5 mm 0.00 in0.0 mm 0.11 in2.8 mm
05:10 PM 74.6°F23.7°C 55.3°F12.9°C 51% 3.0 mph WNW4.8 kmh WNW 4.0 mph6.4 kmh 29.84 in1010.5 mb 0.10 in2.5 mm 0.00 in0.0 mm 0.11 in2.8 mm
05:12 PM 74.7°F23.7°C 55.9°F13.3°C 52% 5.0 mph W8.0 kmh W 6.0 mph9.7 kmh 29.83 in1010.2 mb 0.10 in2.5 mm 0.00 in0.0 mm 0.11 in2.8 mm
05:14 PM 74.7°F23.7°C 54.8°F12.7°C 50% 2.0 mph W3.2 kmh W 2.0 mph3.2 kmh 29.83 in1010.2 mb 0.10 in2.5 mm 0.00 in0.0 mm 0.11 in2.8 mm
05:16 PM 74.7°F23.7°C 54.8°F12.7°C 50% 10.0 mph SW16.1 kmh SW 10.0 mph16.1 kmh 29.83 in1010.2 mb 0.10 in2.5 mm 0.00 in0.0 mm 0.11 in2.8 mm
05:18 PM 74.8°F23.8°C 54.4°F12.4°C 49% 4.0 mph WNW6.4 kmh WNW 4.0 mph6.4 kmh 29.83 in1010.2 mb 0.10 in2.5 mm 0.00 in0.0 mm 0.11 in2.8 mm
05:20 PM 74.8°F23.8°C 54.4°F12.4°C 49% Calm Calm 3.0 mph4.8 kmh 29.83 in1010.2 mb 0.10 in2.5 mm 0.00 in0.0 mm 0.11 in2.8 mm
05:22 PM 74.9°F23.8°C 54.5°F12.5°C 49% 3.0 mph SW4.8 kmh SW 5.0 mph8.0 kmh 29.83 in1010.2 mb 0.10 in2.5 mm 0.00 in0.0 mm 0.11 in2.8 mm
05:24 PM 74.9°F23.8°C 55.0°F12.8°C 50% 3.0 mph SW4.8 kmh SW 3.0 mph4.8 kmh 29.83 in1010.2 mb 0.10 in2.5 mm 0.00 in0.0 mm 0.11 in2.8 mm
05:26 PM 75.0°F23.9°C 54.0°F12.2°C 48% 2.0 mph SW3.2 kmh SW 8.0 mph12.9 kmh 29.83 in1010.2 mb 0.10 in2.5 mm 0.00 in0.0 mm 0.11 in2.8 mm
05:28 PM 75.1°F23.9°C 54.7°F12.6°C 49% 5.0 mph W8.0 kmh W 9.0 mph14.5 kmh 29.83 in1010.2 mb 0.10 in2.5 mm 0.00 in0.0 mm 0.11 in2.8 mm
05:30 PM 75.2°F24.0°C 54.2°F12.3°C 48% 3.0 mph W4.8 kmh W 7.0 mph11.3 kmh 29.83 in1010.2 mb 0.10 in2.5 mm 0.00 in0.0 mm 0.11 in2.8 mm
05:32 PM 75.2°F24.0°C 53.0°F11.7°C 46% 6.0 mph W9.7 kmh W 6.0 mph9.7 kmh 29.83 in1010.2 mb 0.10 in2.5 mm 0.00 in0.0 mm 0.11 in2.8 mm
05:34 PM 75.3°F24.1°C 53.7°F12.1°C 47% 5.0 mph W8.0 kmh W 5.0 mph8.0 kmh 29.83 in1010.2 mb 0.00 in0.0 mm 0.00 in0.0 mm 0.11 in2.8 mm
05:36 PM 75.3°F24.1°C 53.7°F12.1°C 47% 4.0 mph WNW6.4 kmh WNW 10.0 mph16.1 kmh 29.83 in1010.2 mb 0.00 in0.0 mm 0.00 in0.0 mm 0.11 in2.8 mm
05:38 PM 75.3°F24.1°C 53.1°F11.7°C 46% 1.0 mph NNW1.6 kmh NNW 6.0 mph9.7 kmh 29.83 in1010.2 mb 0.00 in0.0 mm 0.00 in0.0 mm 0.11 in2.8 mm
05:40 PM 75.3°F24.1°C 54.3°F12.4°C 48% 3.0 mph W4.8 kmh W 10.0 mph16.1 kmh 29.82 in1009.8 mb 0.00 in0.0 mm 0.00 in0.0 mm 0.11 in2.8 mm
05:42 PM 75.4°F24.1°C 53.8°F12.1°C 47% 4.0 mph W6.4 kmh W 6.0 mph9.7 kmh 29.82 in1009.8 mb 0.00 in0.0 mm 0.00 in0.0 mm 0.11 in2.8 mm
05:44 PM 75.4°F24.1°C 53.2°F11.8°C 46% 1.0 mph WSW1.6 kmh WSW 10.0 mph16.1 kmh 29.82 in1009.8 mb 0.00 in0.0 mm 0.00 in0.0 mm 0.11 in2.8 mm
05:46 PM 75.5°F24.2°C 52.7°F11.5°C 45% 2.0 mph W3.2 kmh W 5.0 mph8.0 kmh 29.82 in1009.8 mb 0.00 in0.0 mm 0.00 in0.0 mm 0.11 in2.8 mm
05:48 PM 75.5°F24.2°C 53.9°F12.2°C 47% Calm Calm 2.0 mph3.2 kmh 29.82 in1009.8 mb 0.00 in0.0 mm 0.00 in0.0 mm 0.11 in2.8 mm
05:50 PM 75.6°F24.2°C 54.6°F12.6°C 48% 4.0 mph SW6.4 kmh SW 4.0 mph6.4 kmh 29.82 in1009.8 mb 0.00 in0.0 mm 0.00 in0.0 mm 0.11 in2.8 mm
05:52 PM 75.6°F24.2°C 53.4°F11.9°C 46% 2.0 mph WSW3.2 kmh WSW 3.0 mph4.8 kmh 29.82 in1009.8 mb 0.00 in0.0 mm 0.00 in0.0 mm 0.11 in2.8 mm
05:54 PM 75.7°F24.3°C 52.9°F11.6°C 45% 1.0 mph WSW1.6 kmh WSW 4.0 mph6.4 kmh 29.82 in1009.8 mb 0.00 in0.0 mm 0.00 in0.0 mm 0.11 in2.8 mm
05:56 PM 75.7°F24.3°C 53.5°F11.9°C 46% Calm Calm 2.0 mph3.2 kmh 29.82 in1009.8 mb 0.00 in0.0 mm 0.00 in0.0 mm 0.11 in2.8 mm
05:58 PM 75.7°F24.3°C 53.5°F11.9°C 46% 3.0 mph WNW4.8 kmh WNW 3.0 mph4.8 kmh 29.82 in1009.8 mb 0.00 in0.0 mm 0.00 in0.0 mm 0.11 in2.8 mm
06:00 PM 75.8°F24.3°C 53.0°F11.7°C 45% 10.0 mph WSW16.1 kmh WSW 10.0 mph16.1 kmh 29.82 in1009.8 mb 0.00 in0.0 mm 0.00 in0.0 mm 0.11 in2.8 mm
06:02 PM 75.8°F24.3°C 53.0°F11.7°C 45% 5.0 mph NW8.0 kmh NW 5.0 mph8.0 kmh 29.82 in1009.8 mb 0.00 in0.0 mm 0.00 in0.0 mm 0.11 in2.8 mm
06:04 PM 75.7°F24.3°C 52.3°F11.3°C 44% 2.0 mph WNW3.2 kmh WNW 6.0 mph9.7 kmh 29.82 in1009.8 mb 0.00 in0.0 mm 0.00 in0.0 mm 0.11 in2.8 mm
06:06 PM 75.7°F24.3°C 52.9°F11.6°C 45% 4.0 mph WNW6.4 kmh WNW 4.0 mph6.4 kmh 29.82 in1009.8 mb 0.00 in0.0 mm 0.00 in0.0 mm 0.11 in2.8 mm
06:08 PM 75.6°F24.2°C 52.2°F11.2°C 44% 3.0 mph NW4.8 kmh NW 10.0 mph16.1 kmh 29.82 in1009.8 mb 0.00 in0.0 mm 0.00 in0.0 mm 0.11 in2.8 mm
06:10 PM 75.6°F24.2°C 52.2°F11.2°C 44% 3.0 mph W4.8 kmh W 9.0 mph14.5 kmh 29.82 in1009.8 mb 0.00 in0.0 mm 0.00 in0.0 mm 0.11 in2.8 mm
06:12 PM 75.5°F24.2°C 52.1°F11.2°C 44% 4.0 mph W6.4 kmh W 4.0 mph6.4 kmh 29.82 in1009.8 mb 0.00 in0.0 mm 0.00 in0.0 mm 0.11 in2.8 mm
06:14 PM 75.6°F24.2°C 52.8°F11.6°C 45% 2.0 mph W3.2 kmh W 2.0 mph3.2 kmh 29.82 in1009.8 mb 0.00 in0.0 mm 0.00 in0.0 mm 0.11 in2.8 mm
06:16 PM 75.7°F24.3°C 52.9°F11.6°C 45% 3.0 mph WSW4.8 kmh WSW 8.0 mph12.9 kmh 29.82 in1009.8 mb 0.00 in0.0 mm 0.00 in0.0 mm 0.11 in2.8 mm
06:18 PM 75.7°F24.3°C 52.3°F11.3°C 44% 1.0 mph SSW1.6 kmh SSW 2.0 mph3.2 kmh 29.82 in1009.8 mb 0.00 in0.0 mm 0.00 in0.0 mm 0.11 in2.8 mm
06:20 PM 75.7°F24.3°C 52.3°F11.3°C 44% 3.0 mph W4.8 kmh W 6.0 mph9.7 kmh 29.82 in1009.8 mb 0.00 in0.0 mm 0.00 in0.0 mm 0.11 in2.8 mm
06:22 PM 75.7°F24.3°C 51.6°F10.9°C 43% 7.0 mph SW11.3 kmh SW 7.0 mph11.3 kmh 29.82 in1009.8 mb 0.00 in0.0 mm 0.00 in0.0 mm 0.11 in2.8 mm
06:24 PM 75.8°F24.3°C 51.1°F10.6°C 42% 4.0 mph SW6.4 kmh SW 4.0 mph6.4 kmh 29.82 in1009.8 mb 0.00 in0.0 mm 0.00 in0.0 mm 0.11 in2.8 mm
06:26 PM 75.8°F24.3°C 52.4°F11.3°C 44% 6.0 mph W9.7 kmh W 6.0 mph9.7 kmh 29.82 in1009.8 mb 0.00 in0.0 mm 0.00 in0.0 mm 0.11 in2.8 mm
06:28 PM 75.8°F24.3°C 51.7°F10.9°C 43% 4.0 mph NW6.4 kmh NW 4.0 mph6.4 kmh 29.82 in1009.8 mb 0.00 in0.0 mm 0.00 in0.0 mm 0.11 in2.8 mm
06:30 PM 75.8°F24.3°C 52.4°F11.3°C 44% 4.0 mph WNW6.4 kmh WNW 4.0 mph6.4 kmh 29.82 in1009.8 mb 0.00 in0.0 mm 0.00 in0.0 mm 0.11 in2.8 mm
06:32 PM 75.8°F24.3°C 51.1°F10.6°C 42% 4.0 mph NW6.4 kmh NW 4.0 mph6.4 kmh 29.82 in1009.8 mb 0.00 in0.0 mm 0.00 in0.0 mm 0.11 in2.8 mm
06:34 PM 75.7°F24.3°C 50.4°F10.2°C 41% 1.0 mph NW1.6 kmh NW 1.0 mph1.6 kmh 29.82 in1009.8 mb 0.00 in0.0 mm 0.00 in0.0 mm 0.11 in2.8 mm
06:36 PM 75.7°F24.3°C 50.4°F10.2°C 41% 2.0 mph WNW3.2 kmh WNW 2.0 mph3.2 kmh 29.82 in1009.8 mb 0.00 in0.0 mm 0.00 in0.0 mm 0.11 in2.8 mm
06:38 PM 75.7°F24.3°C 50.4°F10.2°C 41% 2.0 mph W3.2 kmh W 3.0 mph4.8 kmh 29.83 in1010.2 mb 0.00 in0.0 mm 0.00 in0.0 mm 0.11 in2.8 mm
06:40 PM 75.6°F24.2°C 50.3°F10.2°C 41% 3.0 mph WNW4.8 kmh WNW 5.0 mph8.0 kmh 29.82 in1009.8 mb 0.00 in0.0 mm 0.00 in0.0 mm 0.11 in2.8 mm
06:42 PM 75.6°F24.2°C 49.6°F9.8°C 40% 11.0 mph WNW17.7 kmh WNW 11.0 mph17.7 kmh 29.83 in1010.2 mb 0.00 in0.0 mm 0.00 in0.0 mm 0.11 in2.8 mm
06:44 PM 75.5°F24.2°C 49.5°F9.7°C 40% 2.0 mph W3.2 kmh W 2.0 mph3.2 kmh 29.83 in1010.2 mb 0.00 in0.0 mm 0.00 in0.0 mm 0.11 in2.8 mm
06:46 PM 75.5°F24.2°C 49.5°F9.7°C 40% 4.0 mph WNW6.4 kmh WNW 11.0 mph17.7 kmh 29.83 in1010.2 mb 0.00 in0.0 mm 0.00 in0.0 mm 0.11 in2.8 mm
06:48 PM 75.4°F24.1°C 50.1°F10.1°C 41% 2.0 mph W3.2 kmh W 2.0 mph3.2 kmh 29.83 in1010.2 mb 0.00 in0.0 mm 0.00 in0.0 mm 0.11 in2.8 mm
06:50 PM 75.3°F24.1°C 50.0°F10.0°C 41% 4.0 mph W6.4 kmh W 5.0 mph8.0 kmh 29.82 in1009.8 mb 0.00 in0.0 mm 0.00 in0.0 mm 0.11 in2.8 mm
06:52 PM 75.3°F24.1°C 50.0°F10.0°C 41% 4.0 mph SW6.4 kmh SW 4.0 mph6.4 kmh 29.82 in1009.8 mb 0.00 in0.0 mm 0.00 in0.0 mm 0.11 in2.8 mm
06:54 PM 75.3°F24.1°C 50.0°F10.0°C 41% 2.0 mph WSW3.2 kmh WSW 3.0 mph4.8 kmh 29.82 in1009.8 mb 0.00 in0.0 mm 0.00 in0.0 mm 0.11 in2.8 mm
06:56 PM 75.2°F24.0°C 50.6°F10.3°C 42% 6.0 mph WSW9.7 kmh WSW 9.0 mph14.5 kmh 29.82 in1009.8 mb 0.00 in0.0 mm 0.00 in0.0 mm 0.11 in2.8 mm
06:58 PM 75.1°F23.9°C 49.2°F9.6°C 40% 3.0 mph WSW4.8 kmh WSW 3.0 mph4.8 kmh 29.82 in1009.8 mb 0.00 in0.0 mm 0.00 in0.0 mm 0.11 in2.8 mm
07:00 PM 75.1°F23.9°C 49.8°F9.9°C 41% 5.0 mph SW8.0 kmh SW 5.0 mph8.0 kmh 29.82 in1009.8 mb 0.00 in0.0 mm 0.00 in0.0 mm 0.11 in2.8 mm
07:02 PM 75.0°F23.9°C 49.7°F9.8°C 41% 3.0 mph W4.8 kmh W 5.0 mph8.0 kmh 29.83 in1010.2 mb 0.00 in0.0 mm 0.00 in0.0 mm 0.11 in2.8 mm
07:04 PM 74.9°F23.8°C 49.6°F9.8°C 41% 2.0 mph WNW3.2 kmh WNW 3.0 mph4.8 kmh 29.82 in1009.8 mb 0.00 in0.0 mm 0.00 in0.0 mm 0.11 in2.8 mm
07:06 PM 74.8°F23.8°C 50.2°F10.1°C 42% 1.0 mph WNW1.6 kmh WNW 2.0 mph3.2 kmh 29.82 in1009.8 mb 0.00 in0.0 mm 0.00 in0.0 mm 0.11 in2.8 mm
07:08 PM 74.8°F23.8°C 50.2°F10.1°C 42% 2.0 mph W3.2 kmh W 2.0 mph3.2 kmh 29.83 in1010.2 mb 0.00 in0.0 mm 0.00 in0.0 mm 0.11 in2.8 mm
07:10 PM 74.7°F23.7°C 50.1°F10.1°C 42% 1.0 mph W1.6 kmh W 3.0 mph4.8 kmh 29.83 in1010.2 mb 0.00 in0.0 mm 0.00 in0.0 mm 0.11 in2.8 mm
07:12 PM 74.7°F23.7°C 50.7°F10.4°C 43% 1.0 mph W1.6 kmh W 3.0 mph4.8 kmh 29.82 in1009.8 mb 0.00 in0.0 mm 0.00 in0.0 mm 0.11 in2.8 mm
07:14 PM 74.6°F23.7°C 50.7°F10.4°C 43% 1.0 mph W1.6 kmh W 1.0 mph1.6 kmh 29.83 in1010.2 mb 0.00 in0.0 mm 0.00 in0.0 mm 0.11 in2.8 mm
07:16 PM 74.5°F23.6°C 51.2°F10.7°C 44% 1.0 mph W1.6 kmh W 1.0 mph1.6 kmh 29.83 in1010.2 mb 0.00 in0.0 mm 0.00 in0.0 mm 0.11 in2.8 mm
07:18 PM 74.4°F23.6°C 50.5°F10.3°C 43% 6.0 mph SW9.7 kmh SW 6.0 mph9.7 kmh 29.82 in1009.8 mb 0.00 in0.0 mm 0.00 in0.0 mm 0.11 in2.8 mm
07:20 PM 74.4°F23.6°C 49.2°F9.6°C 41% 2.0 mph SW3.2 kmh SW 4.0 mph6.4 kmh 29.83 in1010.2 mb 0.00 in0.0 mm 0.00 in0.0 mm 0.11 in2.8 mm
07:22 PM 74.3°F23.5°C 49.8°F9.9°C 42% 1.0 mph W1.6 kmh W 1.0 mph1.6 kmh 29.83 in1010.2 mb 0.00 in0.0 mm 0.00 in0.0 mm 0.11 in2.8 mm
07:24 PM 74.2°F23.4°C 49.7°F9.8°C 42% 1.0 mph WSW1.6 kmh WSW 4.0 mph6.4 kmh 29.82 in1009.8 mb 0.00 in0.0 mm 0.00 in0.0 mm 0.11 in2.8 mm
07:26 PM 74.2°F23.4°C 49.7°F9.8°C 42% Calm Calm 1.0 mph1.6 kmh 29.82 in1009.8 mb 0.00 in0.0 mm 0.00 in0.0 mm 0.11 in2.8 mm
07:28 PM 74.1°F23.4°C 50.8°F10.4°C 44% Calm Calm 2.0 mph3.2 kmh 29.83 in1010.2 mb 0.00 in0.0 mm 0.00 in0.0 mm 0.11 in2.8 mm
07:30 PM 74.0°F23.3°C 50.1°F10.1°C 43% 1.0 mph WSW1.6 kmh WSW 3.0 mph4.8 kmh 29.83 in1010.2 mb 0.00 in0.0 mm 0.00 in0.0 mm 0.11 in2.8 mm
07:32 PM 73.8°F23.2°C 50.6°F10.3°C 44% 2.0 mph WSW3.2 kmh WSW 2.0 mph3.2 kmh 29.83 in1010.2 mb 0.00 in0.0 mm 0.00 in0.0 mm 0.11 in2.8 mm
07:34 PM 73.7°F23.2°C 50.5°F10.3°C 44% Calm Calm -- 29.83 in1010.2 mb 0.00 in0.0 mm 0.00 in0.0 mm 0.11 in2.8 mm
07:36 PM 73.6°F23.1°C 50.4°F10.2°C 44% 2.0 mph WSW3.2 kmh WSW 2.0 mph3.2 kmh 29.83 in1010.2 mb 0.00 in0.0 mm 0.00 in0.0 mm 0.11 in2.8 mm
07:38 PM 73.6°F23.1°C 50.4°F10.2°C 44% Calm Calm -- 29.83 in1010.2 mb 0.00 in0.0 mm 0.00 in0.0 mm 0.11 in2.8 mm
07:40 PM 73.4°F23.0°C 50.2°F10.1°C 44% Calm Calm -- 29.83 in1010.2 mb 0.00 in0.0 mm 0.00 in0.0 mm 0.11 in2.8 mm
07:42 PM 73.4°F23.0°C 50.8°F10.4°C 45% Calm Calm -- 29.83 in1010.2 mb 0.00 in0.0 mm 0.00 in0.0 mm 0.11 in2.8 mm
07:44 PM 73.3°F22.9°C 50.7°F10.4°C 45% Calm Calm -- 29.83 in1010.2 mb 0.00 in0.0 mm 0.00 in0.0 mm 0.11 in2.8 mm
07:46 PM 73.2°F22.9°C 51.2°F10.7°C 46% Calm Calm -- 29.83 in1010.2 mb 0.00 in0.0 mm 0.00 in0.0 mm 0.11 in2.8 mm
07:48 PM 73.1°F22.8°C 51.1°F10.6°C 46% Calm Calm -- 29.83 in1010.2 mb 0.00 in0.0 mm 0.00 in0.0 mm 0.11 in2.8 mm
07:50 PM 73.1°F22.8°C 51.1°F10.6°C 46% Calm Calm 1.0 mph1.6 kmh 29.83 in1010.2 mb 0.00 in0.0 mm 0.00 in0.0 mm 0.11 in2.8 mm
07:52 PM 73.0°F22.8°C 51.6°F10.9°C 47% Calm Calm -- 29.83 in1010.2 mb 0.00 in0.0 mm 0.00 in0.0 mm 0.11 in2.8 mm
07:54 PM 72.8°F22.7°C 51.4°F10.8°C 47% Calm Calm -- 29.83 in1010.2 mb 0.00 in0.0 mm 0.00 in0.0 mm 0.11 in2.8 mm
07:56 PM 72.7°F22.6°C 51.3°F10.7°C 47% Calm Calm -- 29.83 in1010.2 mb 0.00 in0.0 mm 0.00 in0.0 mm 0.11 in2.8 mm
07:58 PM 72.5°F22.5°C 51.2°F10.7°C 47% Calm Calm 1.0 mph1.6 kmh 29.83 in1010.2 mb 0.00 in0.0 mm 0.00 in0.0 mm 0.11 in2.8 mm
08:00 PM 72.4°F22.4°C 51.6°F10.9°C 48% 1.0 mph WSW1.6 kmh WSW 1.0 mph1.6 kmh 29.83 in1010.2 mb 0.00 in0.0 mm 0.00 in0.0 mm 0.11 in2.8 mm
08:02 PM 72.3°F22.4°C 51.5°F10.8°C 48% 3.0 mph WSW4.8 kmh WSW 4.0 mph6.4 kmh 29.83 in1010.2 mb 0.00 in0.0 mm 0.00 in0.0 mm 0.11 in2.8 mm
08:04 PM 72.2°F22.3°C 51.4°F10.8°C 48% 2.0 mph WSW3.2 kmh WSW 2.0 mph3.2 kmh 29.83 in1010.2 mb 0.00 in0.0 mm 0.00 in0.0 mm 0.11 in2.8 mm
08:06 PM 72.0°F22.2°C 50.7°F10.4°C 47% 1.0 mph WSW1.6 kmh WSW 3.0 mph4.8 kmh 29.83 in1010.2 mb 0.00 in0.0 mm 0.00 in0.0 mm 0.11 in2.8 mm
08:08 PM 71.8°F22.1°C 51.1°F10.6°C 48% Calm Calm 3.0 mph4.8 kmh 29.83 in1010.2 mb 0.00 in0.0 mm 0.00 in0.0 mm 0.11 in2.8 mm
08:10 PM 71.7°F22.1°C 51.0°F10.6°C 48% Calm Calm 1.0 mph1.6 kmh 29.83 in1010.2 mb 0.00 in0.0 mm 0.00 in0.0 mm 0.11 in2.8 mm
08:12 PM 71.5°F21.9°C 50.8°F10.4°C 48% Calm Calm -- 29.83 in1010.2 mb 0.00 in0.0 mm 0.00 in0.0 mm 0.11 in2.8 mm
08:14 PM 71.4°F21.9°C 50.7°F10.4°C 48% 2.0 mph WSW3.2 kmh WSW 3.0 mph4.8 kmh 29.83 in1010.2 mb 0.00 in0.0 mm 0.00 in0.0 mm 0.11 in2.8 mm
08:16 PM 71.3°F21.8°C 50.6°F10.3°C 48% 2.0 mph WSW3.2 kmh WSW 2.0 mph3.2 kmh 29.83 in1010.2 mb 0.00 in0.0 mm 0.00 in0.0 mm 0.11 in2.8 mm
08:18 PM 71.2°F21.8°C 50.5°F10.3°C 48% Calm Calm -- 29.83 in1010.2 mb 0.00 in0.0 mm 0.00 in0.0 mm 0.11 in2.8 mm
08:20 PM 71.0°F21.7°C 50.9°F10.5°C 49% Calm Calm -- 29.83 in1010.2 mb 0.00 in0.0 mm 0.00 in0.0 mm 0.11 in2.8 mm
08:22 PM 70.9°F21.6°C 50.8°F10.4°C 49% 1.0 mph WSW1.6 kmh WSW 1.0 mph1.6 kmh 29.83 in1010.2 mb 0.00 in0.0 mm 0.00 in0.0 mm 0.11 in2.8 mm
08:24 PM 70.8°F21.6°C 50.7°F10.4°C 49% Calm Calm 2.0 mph3.2 kmh 29.83 in1010.2 mb 0.00 in0.0 mm 0.00 in0.0 mm 0.11 in2.8 mm
08:26 PM 70.6°F21.4°C 51.1°F10.6°C 50% 2.0 mph WSW3.2 kmh WSW 2.0 mph3.2 kmh 29.83 in1010.2 mb 0.00 in0.0 mm 0.00 in0.0 mm 0.11 in2.8 mm
08:28 PM 70.5°F21.4°C 51.0°F10.6°C 50% 2.0 mph WSW3.2 kmh WSW 2.0 mph3.2 kmh 29.83 in1010.2 mb 0.00 in0.0 mm 0.00 in0.0 mm 0.11 in2.8 mm
08:30 PM 70.4°F21.3°C 50.9°F10.5°C 50% 2.0 mph WSW3.2 kmh WSW 3.0 mph4.8 kmh 29.83 in1010.2 mb 0.00 in0.0 mm 0.00 in0.0 mm 0.11 in2.8 mm
08:32 PM 70.2°F21.2°C 50.7°F10.4°C 50% 3.0 mph WSW4.8 kmh WSW 3.0 mph4.8 kmh 29.83 in1010.2 mb 0.00 in0.0 mm 0.00 in0.0 mm 0.11 in2.8 mm
08:34 PM 70.0°F21.1°C 50.5°F10.3°C 50% 1.0 mph WSW1.6 kmh WSW 1.0 mph1.6 kmh 29.83 in1010.2 mb 0.00 in0.0 mm 0.00 in0.0 mm 0.11 in2.8 mm
08:36 PM 69.9°F21.1°C 51.0°F10.6°C 51% Calm Calm -- 29.83 in1010.2 mb 0.00 in0.0 mm 0.00 in0.0 mm 0.11 in2.8 mm
08:38 PM 69.8°F21.0°C 50.9°F10.5°C 51% Calm Calm 2.0 mph3.2 kmh 29.83 in1010.2 mb 0.00 in0.0 mm 0.00 in0.0 mm 0.11 in2.8 mm
08:40 PM 69.6°F20.9°C 50.7°F10.4°C 51% 2.0 mph WSW3.2 kmh WSW 2.0 mph3.2 kmh 29.84 in1010.5 mb 0.00 in0.0 mm 0.00 in0.0 mm 0.11 in2.8 mm
08:42 PM 69.5°F20.8°C 51.1°F10.6°C 52% 3.0 mph WSW4.8 kmh WSW 3.0 mph4.8 kmh 29.84 in1010.5 mb 0.00 in0.0 mm 0.00 in0.0 mm 0.11 in2.8 mm
08:44 PM 69.4°F20.8°C 51.0°F10.6°C 52% 1.0 mph WSW1.6 kmh WSW 3.0 mph4.8 kmh 29.84 in1010.5 mb 0.00 in0.0 mm 0.00 in0.0 mm 0.11 in2.8 mm
08:46 PM 69.3°F20.7°C 50.9°F10.5°C 52% 2.0 mph WSW3.2 kmh WSW 2.0 mph3.2 kmh 29.84 in1010.5 mb 0.00 in0.0 mm 0.00 in0.0 mm 0.11 in2.8 mm
08:48 PM 69.2°F20.7°C 50.9°F10.5°C 52% 2.0 mph WSW3.2 kmh WSW 2.0 mph3.2 kmh 29.84 in1010.5 mb 0.00 in0.0 mm 0.00 in0.0 mm 0.11 in2.8 mm
08:50 PM 69.0°F20.6°C 50.7°F10.4°C 52% 2.0 mph WSW3.2 kmh WSW 3.0 mph4.8 kmh 29.84 in1010.5 mb 0.00 in0.0 mm 0.00 in0.0 mm 0.11 in2.8 mm
08:52 PM 69.0°F20.6°C 50.7°F10.4°C 52% 1.0 mph WSW1.6 kmh WSW 3.0 mph4.8 kmh 29.84 in1010.5 mb 0.00 in0.0 mm 0.00 in0.0 mm 0.11 in2.8 mm
08:54 PM 68.9°F20.5°C 50.6°F10.3°C 52% 2.0 mph WSW3.2 kmh WSW 2.0 mph3.2 kmh 29.84 in1010.5 mb 0.00 in0.0 mm 0.00 in0.0 mm 0.11 in2.8 mm
08:56 PM 68.7°F20.4°C 50.4°F10.2°C 52% Calm Calm 1.0 mph1.6 kmh 29.84 in1010.5 mb 0.00 in0.0 mm 0.00 in0.0 mm 0.11 in2.8 mm
08:58 PM 68.6°F20.3°C 49.8°F9.9°C 51% 1.0 mph WSW1.6 kmh WSW 1.0 mph1.6 kmh 29.84 in1010.5 mb 0.00 in0.0 mm 0.00 in0.0 mm 0.11 in2.8 mm
09:00 PM 68.5°F20.3°C 49.7°F9.8°C 51% Calm Calm -- 29.84 in1010.5 mb 0.00 in0.0 mm 0.00 in0.0 mm 0.11 in2.8 mm
09:02 PM 68.5°F20.3°C 50.2°F10.1°C 52% Calm Calm 1.0 mph1.6 kmh 29.85 in1010.8 mb 0.00 in0.0 mm 0.00 in0.0 mm 0.11 in2.8 mm
09:04 PM 68.4°F20.2°C 50.1°F10.1°C 52% Calm Calm -- 29.85 in1010.8 mb 0.00 in0.0 mm 0.00 in0.0 mm 0.11 in2.8 mm
09:06 PM 68.3°F20.2°C 50.5°F10.3°C 53% Calm Calm -- 29.85 in1010.8 mb 0.00 in0.0 mm 0.00 in0.0 mm 0.11 in2.8 mm
09:08 PM 68.2°F20.1°C 50.4°F10.2°C 53% Calm Calm -- 29.85 in1010.8 mb 0.00 in0.0 mm 0.00 in0.0 mm 0.11 in2.8 mm
09:10 PM 68.1°F20.1°C 50.3°F10.2°C 53% Calm Calm -- 29.85 in1010.8 mb 0.00 in0.0 mm 0.00 in0.0 mm 0.11 in2.8 mm
09:12 PM 68.0°F20.0°C 50.3°F10.2°C 53% Calm Calm -- 29.85 in1010.8 mb 0.00 in0.0 mm 0.00 in0.0 mm 0.11 in2.8 mm
09:14 PM 67.9°F19.9°C 50.2°F10.1°C 53% 2.0 mph WSW3.2 kmh WSW 2.0 mph3.2 kmh 29.85 in1010.8 mb 0.00 in0.0 mm 0.00 in0.0 mm 0.11 in2.8 mm
09:16 PM 67.8°F19.9°C 50.1°F10.1°C 53% 1.0 mph WSW1.6 kmh WSW 1.0 mph1.6 kmh 29.85 in1010.8 mb 0.00 in0.0 mm 0.00 in0.0 mm 0.11 in2.8 mm
09:18 PM 67.7°F19.8°C 50.0°F10.0°C 53% Calm Calm -- 29.85 in1010.8 mb 0.00 in0.0 mm 0.00 in0.0 mm 0.11 in2.8 mm
09:20 PM 67.6°F19.8°C 50.4°F10.2°C 54% Calm Calm -- 29.85 in1010.8 mb 0.00 in0.0 mm 0.00 in0.0 mm 0.11 in2.8 mm
09:22 PM 67.5°F19.7°C 49.8°F9.9°C 53% 3.0 mph SW4.8 kmh SW 5.0 mph8.0 kmh 29.85 in1010.8 mb 0.00 in0.0 mm 0.00 in0.0 mm 0.11 in2.8 mm
09:24 PM 67.4°F19.7°C 49.2°F9.6°C 52% Calm Calm -- 29.85 in1010.8 mb 0.00 in0.0 mm 0.00 in0.0 mm 0.11 in2.8 mm
09:26 PM 67.3°F19.6°C 49.6°F9.8°C 53% Calm Calm -- 29.85 in1010.8 mb 0.00 in0.0 mm 0.00 in0.0 mm 0.11 in2.8 mm
09:28 PM 67.2°F19.6°C 51.0°F10.6°C 56% Calm Calm 1.0 mph1.6 kmh 29.86 in1011.2 mb 0.00 in0.0 mm 0.00 in0.0 mm 0.11 in2.8 mm
09:30 PM 67.1°F19.5°C 50.9°F10.5°C 56% Calm Calm -- 29.86 in1011.2 mb 0.00 in0.0 mm 0.00 in0.0 mm 0.11 in2.8 mm
09:32 PM 67.0°F19.4°C 50.3°F10.2°C 55% Calm Calm -- 29.86 in1011.2 mb 0.00 in0.0 mm 0.00 in0.0 mm 0.11 in2.8 mm
09:34 PM 66.9°F19.4°C 49.7°F9.8°C 54% Calm Calm -- 29.86 in1011.2 mb 0.00 in0.0 mm 0.00 in0.0 mm 0.11 in2.8 mm
09:36 PM 66.8°F19.3°C 49.6°F9.8°C 54% Calm Calm -- 29.86 in1011.2 mb 0.00 in0.0 mm 0.00 in0.0 mm 0.11 in2.8 mm
09:38 PM 66.7°F19.3°C 50.0°F10.0°C 55% Calm Calm -- 29.86 in1011.2 mb 0.00 in0.0 mm 0.00 in0.0 mm 0.11 in2.8 mm
09:40 PM 66.6°F19.2°C 50.0°F10.0°C 55% Calm Calm -- 29.86 in1011.2 mb 0.00 in0.0 mm 0.00 in0.0 mm 0.11 in2.8 mm
09:42 PM 66.5°F19.2°C 49.9°F9.9°C 55% Calm Calm -- 29.86 in1011.2 mb 0.00 in0.0 mm 0.00 in0.0 mm 0.11 in2.8 mm
09:44 PM 66.4°F19.1°C 49.8°F9.9°C 55% Calm Calm -- 29.86 in1011.2 mb 0.00 in0.0 mm 0.00 in0.0 mm 0.11 in2.8 mm
09:46 PM 66.3°F19.1°C 50.2°F10.1°C 56% Calm Calm -- 29.86 in1011.2 mb 0.00 in0.0 mm 0.00 in0.0 mm 0.11 in2.8 mm
09:48 PM 66.2°F19.0°C 50.5°F10.3°C 57% Calm Calm -- 29.86 in1011.2 mb 0.00 in0.0 mm 0.00 in0.0 mm 0.11 in2.8 mm
09:50 PM 66.1°F18.9°C 50.4°F10.2°C 57% Calm Calm -- 29.86 in1011.2 mb 0.00 in0.0 mm 0.00 in0.0 mm 0.11 in2.8 mm
09:52 PM 66.0°F18.9°C 50.4°F10.2°C 57% Calm Calm -- 29.86 in1011.2 mb 0.00 in0.0 mm 0.00 in0.0 mm 0.11 in2.8 mm
09:54 PM 65.9°F18.8°C 50.3°F10.2°C 57% 2.0 mph WSW3.2 kmh WSW 2.0 mph3.2 kmh 29.86 in1011.2 mb 0.00 in0.0 mm 0.00 in0.0 mm 0.11 in2.8 mm
09:56 PM 65.8°F18.8°C 50.6°F10.3°C 58% 1.0 mph WSW1.6 kmh WSW 1.0 mph1.6 kmh 29.86 in1011.2 mb 0.00 in0.0 mm 0.00 in0.0 mm 0.11 in2.8 mm
09:58 PM 65.7°F18.7°C 50.5°F10.3°C 58% Calm Calm -- 29.86 in1011.2 mb 0.00 in0.0 mm 0.00 in0.0 mm 0.11 in2.8 mm
10:00 PM 65.6°F18.7°C 50.4°F10.2°C 58% Calm Calm -- 29.86 in1011.2 mb 0.00 in0.0 mm 0.00 in0.0 mm 0.11 in2.8 mm
10:02 PM 65.5°F18.6°C 50.8°F10.4°C 59% 2.0 mph WSW3.2 kmh WSW 2.0 mph3.2 kmh 29.86 in1011.2 mb 0.00 in0.0 mm 0.00 in0.0 mm 0.11 in2.8 mm
10:04 PM 65.4°F18.6°C 50.7°F10.4°C 59% Calm Calm -- 29.87 in1011.5 mb 0.00 in0.0 mm 0.00 in0.0 mm 0.11 in2.8 mm
10:06 PM 65.3°F18.5°C 50.6°F10.3°C 59% Calm Calm -- 29.87 in1011.5 mb 0.00 in0.0 mm 0.00 in0.0 mm 0.11 in2.8 mm
10:08 PM 65.1°F18.4°C 50.4°F10.2°C 59% 2.0 mph WSW3.2 kmh WSW 2.0 mph3.2 kmh 29.87 in1011.5 mb 0.00 in0.0 mm 0.00 in0.0 mm 0.11 in2.8 mm
10:10 PM 65.0°F18.3°C 50.3°F10.2°C 59% Calm Calm -- 29.87 in1011.5 mb 0.00 in0.0 mm 0.00 in0.0 mm 0.11 in2.8 mm
10:12 PM 64.9°F18.3°C 50.3°F10.2°C 59% 2.0 mph WSW3.2 kmh WSW 2.0 mph3.2 kmh 29.87 in1011.5 mb 0.00 in0.0 mm 0.00 in0.0 mm 0.11 in2.8 mm
10:14 PM 64.7°F18.2°C 50.1°F10.1°C 59% 1.0 mph WSW1.6 kmh WSW 1.0 mph1.6 kmh 29.87 in1011.5 mb 0.00 in0.0 mm 0.00 in0.0 mm 0.11 in2.8 mm
10:16 PM 64.6°F18.1°C 50.0°F10.0°C 59% Calm Calm -- 29.87 in1011.5 mb 0.00 in0.0 mm 0.00 in0.0 mm 0.11 in2.8 mm
10:18 PM 64.5°F18.1°C 49.9°F9.9°C 59% Calm Calm -- 29.87 in1011.5 mb 0.00 in0.0 mm 0.00 in0.0 mm 0.11 in2.8 mm
10:20 PM 64.4°F18.0°C 51.6°F10.9°C 63% Calm Calm -- 29.88 in1011.9 mb 0.00 in0.0 mm 0.00 in0.0 mm 0.11 in2.8 mm
10:22 PM 64.3°F17.9°C 52.3°F11.3°C 65% 7.0 mph WNW11.3 kmh WNW 7.0 mph11.3 kmh 29.89 in1012.2 mb 0.00 in0.0 mm 0.00 in0.0 mm 0.11 in2.8 mm
10:24 PM 64.1°F17.8°C 51.3°F10.7°C 63% 1.0 mph NW1.6 kmh NW 2.0 mph3.2 kmh 29.89 in1012.2 mb 0.00 in0.0 mm 0.00 in0.0 mm 0.11 in2.8 mm
10:26 PM 64.0°F17.8°C 50.3°F10.2°C 61% 1.0 mph NW1.6 kmh NW 5.0 mph8.0 kmh 29.89 in1012.2 mb 0.00 in0.0 mm 0.00 in0.0 mm 0.11 in2.8 mm
10:28 PM 63.9°F17.7°C 50.2°F10.1°C 61% 4.0 mph WNW6.4 kmh WNW 4.0 mph6.4 kmh 29.89 in1012.2 mb 0.00 in0.0 mm 0.00 in0.0 mm 0.11 in2.8 mm
10:30 PM 63.8°F17.7°C 50.1°F10.1°C 61% 4.0 mph NW6.4 kmh NW 6.0 mph9.7 kmh 29.89 in1012.2 mb 0.00 in0.0 mm 0.00 in0.0 mm 0.11 in2.8 mm
10:32 PM 63.8°F17.7°C 50.1°F10.1°C 61% 2.0 mph WNW3.2 kmh WNW 4.0 mph6.4 kmh 29.89 in1012.2 mb 0.00 in0.0 mm 0.00 in0.0 mm 0.11 in2.8 mm
10:34 PM 63.8°F17.7°C 49.7°F9.8°C 60% 1.0 mph WNW1.6 kmh WNW 6.0 mph9.7 kmh 29.89 in1012.2 mb 0.00 in0.0 mm 0.00 in0.0 mm 0.11 in2.8 mm
10:36 PM 63.9°F17.7°C 49.8°F9.9°C 60% 10.0 mph N16.1 kmh N 10.0 mph16.1 kmh 29.90 in1012.5 mb 0.00 in0.0 mm 0.00 in0.0 mm 0.11 in2.8 mm
10:38 PM 64.0°F17.8°C 49.9°F9.9°C 60% 1.0 mph NNW1.6 kmh NNW 1.0 mph1.6 kmh 29.90 in1012.5 mb 0.00 in0.0 mm 0.00 in0.0 mm 0.11 in2.8 mm
10:40 PM 64.1°F17.8°C 50.0°F10.0°C 60% 1.0 mph NNE1.6 kmh NNE 1.0 mph1.6 kmh 29.89 in1012.2 mb 0.00 in0.0 mm 0.00 in0.0 mm 0.11 in2.8 mm
10:42 PM 64.2°F17.9°C 50.0°F10.0°C 60% 3.0 mph NW4.8 kmh NW 6.0 mph9.7 kmh 29.90 in1012.5 mb 0.00 in0.0 mm 0.00 in0.0 mm 0.11 in2.8 mm
10:44 PM 64.2°F17.9°C 50.0°F10.0°C 60% Calm Calm 2.0 mph3.2 kmh 29.90 in1012.5 mb 0.00 in0.0 mm 0.00 in0.0 mm 0.11 in2.8 mm
10:46 PM 64.3°F17.9°C 50.1°F10.1°C 60% 2.0 mph N3.2 kmh N 5.0 mph8.0 kmh 29.90 in1012.5 mb 0.00 in0.0 mm 0.00 in0.0 mm 0.11 in2.8 mm
10:48 PM 64.3°F17.9°C 50.1°F10.1°C 60% Calm Calm 4.0 mph6.4 kmh 29.90 in1012.5 mb 0.00 in0.0 mm 0.00 in0.0 mm 0.11 in2.8 mm
10:50 PM 64.4°F18.0°C 50.2°F10.1°C 60% Calm Calm -- 29.90 in1012.5 mb 0.00 in0.0 mm 0.00 in0.0 mm 0.11 in2.8 mm
10:52 PM 64.4°F18.0°C 50.7°F10.4°C 61% Calm Calm 3.0 mph4.8 kmh 29.90 in1012.5 mb 0.00 in0.0 mm 0.00 in0.0 mm 0.11 in2.8 mm
10:54 PM 64.4°F18.0°C 50.7°F10.4°C 61% Calm Calm 3.0 mph4.8 kmh 29.90 in1012.5 mb 0.00 in0.0 mm 0.00 in0.0 mm 0.11 in2.8 mm
10:56 PM 64.4°F18.0°C 50.7°F10.4°C 61% 3.0 mph NW4.8 kmh NW 5.0 mph8.0 kmh 29.90 in1012.5 mb 0.00 in0.0 mm 0.00 in0.0 mm 0.11 in2.8 mm
10:58 PM 64.3°F17.9°C 50.1°F10.1°C 60% Calm Calm 4.0 mph6.4 kmh 29.90 in1012.5 mb 0.00 in0.0 mm 0.00 in0.0 mm 0.11 in2.8 mm
11:00 PM 64.3°F17.9°C 50.6°F10.3°C 61% 4.0 mph N6.4 kmh N 11.0 mph17.7 kmh 29.90 in1012.5 mb 0.00 in0.0 mm 0.00 in0.0 mm 0.11 in2.8 mm
11:02 PM 64.3°F17.9°C 50.6°F10.3°C 61% 6.0 mph WNW9.7 kmh WNW 6.0 mph9.7 kmh 29.90 in1012.5 mb 0.00 in0.0 mm 0.00 in0.0 mm 0.11 in2.8 mm
11:04 PM 64.2°F17.9°C 50.0°F10.0°C 60% 3.0 mph NW4.8 kmh NW 4.0 mph6.4 kmh 29.90 in1012.5 mb 0.00 in0.0 mm 0.00 in0.0 mm 0.11 in2.8 mm
11:06 PM 64.1°F17.8°C 50.0°F10.0°C 60% Calm Calm -- 29.91 in1012.9 mb 0.00 in0.0 mm 0.00 in0.0 mm 0.11 in2.8 mm
11:08 PM 64.1°F17.8°C 49.5°F9.7°C 59% 1.0 mph NNW1.6 kmh NNW 1.0 mph1.6 kmh 29.91 in1012.9 mb 0.00 in0.0 mm 0.00 in0.0 mm 0.11 in2.8 mm
11:10 PM 64.0°F17.8°C 49.4°F9.7°C 59% 1.0 mph N1.6 kmh N 5.0 mph8.0 kmh 29.90 in1012.5 mb 0.00 in0.0 mm 0.00 in0.0 mm 0.11 in2.8 mm
11:12 PM 63.9°F17.7°C 49.3°F9.6°C 59% Calm Calm 2.0 mph3.2 kmh 29.90 in1012.5 mb 0.00 in0.0 mm 0.00 in0.0 mm 0.11 in2.8 mm
11:14 PM 63.8°F17.7°C 49.2°F9.6°C 59% 1.0 mph NW1.6 kmh NW 1.0 mph1.6 kmh 29.91 in1012.9 mb 0.00 in0.0 mm 0.00 in0.0 mm 0.11 in2.8 mm
11:16 PM 63.7°F17.6°C 49.1°F9.5°C 59% Calm Calm 5.0 mph8.0 kmh 29.91 in1012.9 mb 0.00 in0.0 mm 0.00 in0.0 mm 0.11 in2.8 mm
11:18 PM 63.6°F17.6°C 49.5°F9.7°C 60% 1.0 mph N1.6 kmh N 1.0 mph1.6 kmh 29.91 in1012.9 mb 0.00 in0.0 mm 0.00 in0.0 mm 0.11 in2.8 mm
11:20 PM 63.5°F17.5°C 48.9°F9.4°C 59% Calm Calm 5.0 mph8.0 kmh 29.91 in1012.9 mb 0.00 in0.0 mm 0.00 in0.0 mm 0.11 in2.8 mm
11:22 PM 63.4°F17.4°C 48.4°F9.1°C 58% 3.0 mph NNW4.8 kmh NNW 3.0 mph4.8 kmh 29.91 in1012.9 mb 0.00 in0.0 mm 0.00 in0.0 mm 0.11 in2.8 mm
11:24 PM 63.3°F17.4°C 48.7°F9.3°C 59% 2.0 mph NW3.2 kmh NW 10.0 mph16.1 kmh 29.91 in1012.9 mb 0.00 in0.0 mm 0.00 in0.0 mm 0.11 in2.8 mm
11:26 PM 63.2°F17.3°C 48.2°F9.0°C 58% 1.0 mph NE1.6 kmh NE 3.0 mph4.8 kmh 29.91 in1012.9 mb 0.00 in0.0 mm 0.00 in0.0 mm 0.11 in2.8 mm
11:28 PM 63.1°F17.3°C 48.1°F8.9°C 58% 1.0 mph W1.6 kmh W 5.0 mph8.0 kmh 29.91 in1012.9 mb 0.00 in0.0 mm 0.00 in0.0 mm 0.11 in2.8 mm
11:30 PM 63.0°F17.2°C 48.0°F8.9°C 58% 3.0 mph NW4.8 kmh NW 3.0 mph4.8 kmh 29.91 in1012.9 mb 0.00 in0.0 mm 0.00 in0.0 mm 0.11 in2.8 mm
11:32 PM 62.9°F17.2°C 48.4°F9.1°C 59% 4.0 mph NNW6.4 kmh NNW 4.0 mph6.4 kmh 29.92 in1013.2 mb 0.00 in0.0 mm 0.00 in0.0 mm 0.11 in2.8 mm
11:34 PM 62.9°F17.2°C 47.9°F8.8°C 58% Calm Calm -- 29.92 in1013.2 mb 0.00 in0.0 mm 0.00 in0.0 mm 0.11 in2.8 mm
11:36 PM 62.8°F17.1°C 47.8°F8.8°C 58% Calm Calm 3.0 mph4.8 kmh 29.92 in1013.2 mb 0.00 in0.0 mm 0.00 in0.0 mm 0.11 in2.8 mm
11:38 PM 62.8°F17.1°C 48.3°F9.1°C 59% Calm Calm 1.0 mph1.6 kmh 29.92 in1013.2 mb 0.00 in0.0 mm 0.00 in0.0 mm 0.11 in2.8 mm
11:40 PM 62.7°F17.1°C 48.2°F9.0°C 59% Calm Calm 4.0 mph6.4 kmh 29.92 in1013.2 mb 0.00 in0.0 mm 0.00 in0.0 mm 0.11 in2.8 mm
11:42 PM 62.7°F17.1°C 48.2°F9.0°C 59% Calm Calm -- 29.92 in1013.2 mb 0.00 in0.0 mm 0.00 in0.0 mm 0.11 in2.8 mm
11:44 PM 62.6°F17.0°C 48.1°F8.9°C 59% Calm Calm 1.0 mph1.6 kmh 29.92 in1013.2 mb 0.00 in0.0 mm 0.00 in0.0 mm 0.11 in2.8 mm
11:46 PM 62.5°F16.9°C 47.5°F8.6°C 58% Calm Calm 2.0 mph3.2 kmh 29.92 in1013.2 mb 0.00 in0.0 mm 0.00 in0.0 mm 0.11 in2.8 mm
11:48 PM 62.4°F16.9°C 47.5°F8.6°C 58% Calm Calm 2.0 mph3.2 kmh 29.92 in1013.2 mb 0.00 in0.0 mm 0.00 in0.0 mm 0.11 in2.8 mm
11:50 PM 62.4°F16.9°C 47.5°F8.6°C 58% Calm Calm -- 29.92 in1013.2 mb 0.00 in0.0 mm 0.00 in0.0 mm 0.11 in2.8 mm
11:52 PM 62.3°F16.8°C 47.8°F8.8°C 59% Calm Calm -- 29.92 in1013.2 mb 0.00 in0.0 mm 0.00 in0.0 mm 0.11 in2.8 mm
11:54 PM 62.3°F16.8°C 47.8°F8.8°C 59% Calm Calm 1.0 mph1.6 kmh 29.92 in1013.2 mb 0.00 in0.0 mm 0.00 in0.0 mm 0.11 in2.8 mm
11:56 PM 62.2°F16.8°C 47.7°F8.7°C 59% Calm Calm -- 29.92 in1013.2 mb 0.00 in0.0 mm 0.00 in0.0 mm 0.11 in2.8 mm
11:58 PM 62.2°F16.8°C 47.3°F8.5°C 58% Calm Calm -- 29.93 in1013.5 mb 0.00 in0.0 mm 0.00 in0.0 mm 0.11 in2.8 mm